<?xml version="1.0" encoding="UTF-8" standalone="no" ?>
<gpx xmlns="http://www.topografix.com/GPX/1/1" xmlns:xsi="http://www.w3.org/2001/XMLSchema-instance" xsi:schemaLocation="http://www.topografix.com/GPX/1/1 http://www.topografix.com/GPX/1/1/gpx.xsd" version="1.1" creator="VisuGPX - https://www.visugpx.com">
  <metadata>
    <name>GR 441/GR441A-Départ et retour Vulcania</name>
  </metadata>
  <wpt lat="45.76982" lon="2.87406">
    <ele>790.6</ele>
  </wpt>
  <trk>
    <name><![CDATA[GR 441/GR441A-Départ et retour Vulcania_1]]></name>
    <extensions>
      <line xmlns="http://www.topografix.com/GPX/gpx_style/0/2">
        <color>0000FF</color>
        <width>4</width>
      </line>
    </extensions>
    <trkseg>
      <trkpt lat="45.81443" lon="2.95319">
        <ele>957.165</ele>
        <time>2021-03-28T14:35:23Z</time>
      </trkpt>
      <trkpt lat="45.81443" lon="2.95319">
        <ele>957.165</ele>
        <time>2021-03-28T14:35:23Z</time>
      </trkpt>
      <trkpt lat="45.81407" lon="2.95317">
        <ele>959.166</ele>
        <time>2021-03-28T14:35:43Z</time>
      </trkpt>
      <trkpt lat="45.81337" lon="2.95238">
        <ele>960.724</ele>
        <time>2016-12-04T17:40:25Z</time>
      </trkpt>
      <trkpt lat="45.81249" lon="2.95136">
        <ele>961.913</ele>
        <time>2021-03-28T14:36:23Z</time>
      </trkpt>
      <trkpt lat="45.81208" lon="2.95096">
        <ele>963.432</ele>
        <time>2021-03-28T14:36:43Z</time>
      </trkpt>
      <trkpt lat="45.81154" lon="2.9508">
        <ele>967.642</ele>
        <time>2016-12-04T17:41:45Z</time>
      </trkpt>
      <trkpt lat="45.81075" lon="2.9508">
        <ele>960.621</ele>
        <time>2016-12-04T17:42:05Z</time>
      </trkpt>
      <trkpt lat="45.80952" lon="2.9511">
        <ele>965.763</ele>
        <time>2016-12-04T17:42:25Z</time>
      </trkpt>
      <trkpt lat="45.80609" lon="2.95015">
        <ele>953.744</ele>
        <time>2016-12-04T17:42:45Z</time>
      </trkpt>
      <trkpt lat="45.80571" lon="2.95012">
        <ele>955.318</ele>
        <time>2016-12-04T17:43:05Z</time>
      </trkpt>
      <trkpt lat="45.80521" lon="2.94992">
        <ele>954.608</ele>
        <time>2016-12-04T17:43:25Z</time>
      </trkpt>
      <trkpt lat="45.80471" lon="2.95025">
        <ele>957.742</ele>
        <time>2016-12-04T17:43:45Z</time>
      </trkpt>
      <trkpt lat="45.80404" lon="2.95046">
        <ele>960.044</ele>
        <time>2016-12-04T17:44:05Z</time>
      </trkpt>
      <trkpt lat="45.80357" lon="2.95085">
        <ele>971.795</ele>
        <time>2016-12-04T17:44:25Z</time>
      </trkpt>
      <trkpt lat="45.80312" lon="2.95124">
        <ele>978.783</ele>
        <time>2016-12-04T17:44:45Z</time>
      </trkpt>
      <trkpt lat="45.80245" lon="2.95148">
        <ele>982.352</ele>
        <time>2016-12-04T17:45:05Z</time>
      </trkpt>
      <trkpt lat="45.80171" lon="2.95137">
        <ele>992.751</ele>
        <time>2016-12-04T17:45:25Z</time>
      </trkpt>
      <trkpt lat="45.80115" lon="2.95116">
        <ele>996.721</ele>
        <time>2016-12-04T17:45:45Z</time>
      </trkpt>
      <trkpt lat="45.80087" lon="2.95127">
        <ele>997.91</ele>
        <time>2016-12-04T17:46:05Z</time>
      </trkpt>
      <trkpt lat="45.80065" lon="2.95098">
        <ele>998.778</ele>
        <time>2016-12-04T17:46:25Z</time>
      </trkpt>
      <trkpt lat="45.79973" lon="2.95077">
        <ele>1008.133</ele>
        <time>2016-12-04T17:46:45Z</time>
      </trkpt>
      <trkpt lat="45.79907" lon="2.95011">
        <ele>1015.426</ele>
        <time>2016-12-04T17:47:05Z</time>
      </trkpt>
      <trkpt lat="45.79898" lon="2.94986">
        <ele>1019.608</ele>
        <time>2016-12-04T17:47:25Z</time>
      </trkpt>
      <trkpt lat="45.79843" lon="2.94999">
        <ele>1019.233</ele>
        <time>2016-12-04T17:47:45Z</time>
      </trkpt>
      <trkpt lat="45.79818" lon="2.95024">
        <ele>1014.835</ele>
        <time>2016-12-04T17:48:05Z</time>
      </trkpt>
      <trkpt lat="45.7979" lon="2.95015">
        <ele>1016.216</ele>
        <time>2016-12-04T17:48:25Z</time>
      </trkpt>
      <trkpt lat="45.79726" lon="2.95031">
        <ele>1013.554</ele>
        <time>2016-12-04T17:48:45Z</time>
      </trkpt>
      <trkpt lat="45.79656" lon="2.95039">
        <ele>1012.693</ele>
        <time>2016-12-04T17:49:05Z</time>
      </trkpt>
      <trkpt lat="45.79616" lon="2.95052">
        <ele>1012.192</ele>
        <time>2016-12-04T17:49:25Z</time>
      </trkpt>
      <trkpt lat="45.79583" lon="2.95054">
        <ele>1015.022</ele>
        <time>2016-12-04T17:49:45Z</time>
      </trkpt>
      <trkpt lat="45.79561" lon="2.95029">
        <ele>1017.531</ele>
        <time>2016-12-04T17:50:05Z</time>
      </trkpt>
      <trkpt lat="45.7954" lon="2.9496">
        <ele>1016.541</ele>
        <time>2016-12-04T17:50:25Z</time>
      </trkpt>
      <trkpt lat="45.79478" lon="2.94886">
        <ele>1024.081</ele>
        <time>2016-12-04T17:50:45Z</time>
      </trkpt>
      <trkpt lat="45.79316" lon="2.94668">
        <ele>1031.609</ele>
        <time>2016-12-04T17:51:05Z</time>
      </trkpt>
      <trkpt lat="45.79284" lon="2.94607">
        <ele>1031.608</ele>
        <time>2016-12-04T17:51:25Z</time>
      </trkpt>
      <trkpt lat="45.7921" lon="2.94501">
        <ele>1032.51</ele>
        <time>2016-12-04T17:51:45Z</time>
      </trkpt>
      <trkpt lat="45.79144" lon="2.94437">
        <ele>1038.372</ele>
        <time>2016-12-04T17:52:05Z</time>
      </trkpt>
      <trkpt lat="45.79111" lon="2.94427">
        <ele>1039.073</ele>
        <time>2016-12-04T17:52:25Z</time>
      </trkpt>
      <trkpt lat="45.79079" lon="2.94427">
        <ele>1041.341</ele>
        <time>2016-12-04T17:52:45Z</time>
      </trkpt>
      <trkpt lat="45.79021" lon="2.94406">
        <ele>1045.88</ele>
        <time>2016-12-04T17:53:05Z</time>
      </trkpt>
      <trkpt lat="45.78883" lon="2.94399">
        <ele>1048.829</ele>
        <time>2016-12-04T17:53:25Z</time>
      </trkpt>
      <trkpt lat="45.78791" lon="2.94453">
        <ele>1044.249</ele>
        <time>2016-12-04T17:53:45Z</time>
      </trkpt>
      <trkpt lat="45.78708" lon="2.94442">
        <ele>1036.668</ele>
        <time>2016-12-04T17:54:05Z</time>
      </trkpt>
      <trkpt lat="45.78646" lon="2.94522">
        <ele>1041.895</ele>
        <time>2016-12-04T17:54:25Z</time>
      </trkpt>
      <trkpt lat="45.78606" lon="2.94615">
        <ele>1046.149</ele>
        <time>2016-12-04T17:54:45Z</time>
      </trkpt>
      <trkpt lat="45.78606" lon="2.94668">
        <ele>1048.023</ele>
        <time>2016-12-04T17:55:05Z</time>
      </trkpt>
      <trkpt lat="45.78622" lon="2.94802">
        <ele>1051.208</ele>
        <time>2016-12-04T17:55:25Z</time>
      </trkpt>
      <trkpt lat="45.78648" lon="2.94941">
        <ele>1056.855</ele>
        <time>2016-12-04T17:55:45Z</time>
      </trkpt>
      <trkpt lat="45.78624" lon="2.95031">
        <ele>1062.187</ele>
        <time>2016-12-04T17:56:05Z</time>
      </trkpt>
      <trkpt lat="45.78631" lon="2.95133">
        <ele>1067.058</ele>
        <time>2016-12-04T17:56:25Z</time>
      </trkpt>
      <trkpt lat="45.78609" lon="2.95333">
        <ele>1067.856</ele>
        <time>2016-12-04T17:56:45Z</time>
      </trkpt>
      <trkpt lat="45.78609" lon="2.95417">
        <ele>1067.785</ele>
        <time>2016-12-04T17:57:05Z</time>
      </trkpt>
      <trkpt lat="45.78594" lon="2.955">
        <ele>1066.584</ele>
        <time>2016-12-04T17:57:25Z</time>
      </trkpt>
      <trkpt lat="45.7859" lon="2.95572">
        <ele>1066.184</ele>
        <time>2016-12-04T17:57:45Z</time>
      </trkpt>
      <trkpt lat="45.78582" lon="2.95643">
        <ele>1066.043</ele>
        <time>2016-12-04T17:58:05Z</time>
      </trkpt>
      <trkpt lat="45.78587" lon="2.95849">
        <ele>1072.935</ele>
        <time>2016-12-04T17:58:25Z</time>
      </trkpt>
      <trkpt lat="45.78616" lon="2.95985">
        <ele>1081.586</ele>
        <time>2016-12-04T17:58:45Z</time>
      </trkpt>
      <trkpt lat="45.78594" lon="2.96056">
        <ele>1087.014</ele>
        <time>2016-12-04T17:59:05Z</time>
      </trkpt>
      <trkpt lat="45.78508" lon="2.96153">
        <ele>1095.708</ele>
        <time>2016-12-04T17:59:25Z</time>
      </trkpt>
      <trkpt lat="45.78505" lon="2.9618">
        <ele>1099.269</ele>
        <time>2016-12-04T17:59:45Z</time>
      </trkpt>
      <trkpt lat="45.78479" lon="2.96205">
        <ele>1104.891</ele>
        <time>2016-12-04T18:00:05Z</time>
      </trkpt>
      <trkpt lat="45.78451" lon="2.96207">
        <ele>1105.352</ele>
        <time>2016-12-04T18:00:25Z</time>
      </trkpt>
      <trkpt lat="45.7841" lon="2.96241">
        <ele>1107.07</ele>
        <time>2016-12-04T18:00:45Z</time>
      </trkpt>
      <trkpt lat="45.78381" lon="2.96323">
        <ele>1116.069</ele>
        <time>2016-12-04T18:01:05Z</time>
      </trkpt>
      <trkpt lat="45.78371" lon="2.96421">
        <ele>1119.738</ele>
        <time>2016-12-04T18:01:25Z</time>
      </trkpt>
      <trkpt lat="45.7839" lon="2.96525">
        <ele>1122.938</ele>
        <time>2016-12-04T18:01:45Z</time>
      </trkpt>
      <trkpt lat="45.78394" lon="2.96596">
        <ele>1124.087</ele>
        <time>2016-12-04T18:02:05Z</time>
      </trkpt>
      <trkpt lat="45.78354" lon="2.96562">
        <ele>1123.717</ele>
        <time>2016-12-04T18:02:25Z</time>
      </trkpt>
      <trkpt lat="45.78297" lon="2.96555">
        <ele>1132.687</ele>
        <time>2016-12-04T18:02:45Z</time>
      </trkpt>
      <trkpt lat="45.78204" lon="2.96578">
        <ele>1148.815</ele>
        <time>2016-12-04T18:03:05Z</time>
      </trkpt>
      <trkpt lat="45.7814" lon="2.96512">
        <ele>1169.508</ele>
        <time>2016-12-04T18:03:25Z</time>
      </trkpt>
      <trkpt lat="45.78043" lon="2.96503">
        <ele>1186.977</ele>
        <time>2016-12-04T18:03:45Z</time>
      </trkpt>
      <trkpt lat="45.77992" lon="2.96465">
        <ele>1193.929</ele>
        <time>2016-12-04T18:04:05Z</time>
      </trkpt>
      <trkpt lat="45.77952" lon="2.96402">
        <ele>1208.85</ele>
        <time>2016-12-04T18:04:25Z</time>
      </trkpt>
      <trkpt lat="45.77911" lon="2.9641">
        <ele>1211.618</ele>
        <time>2016-12-04T18:04:45Z</time>
      </trkpt>
      <trkpt lat="45.77886" lon="2.96418">
        <ele>1213.977</ele>
        <time>2016-12-04T18:05:05Z</time>
      </trkpt>
      <trkpt lat="45.77766" lon="2.9643">
        <ele>1219.446</ele>
        <time>2016-12-04T18:05:25Z</time>
      </trkpt>
      <trkpt lat="45.77641" lon="2.96481">
        <ele>1244.116</ele>
        <time>2021-03-28T15:01:03Z</time>
      </trkpt>
      <trkpt lat="45.77622" lon="2.96438">
        <ele>1249.965</ele>
        <time>2021-03-28T15:01:23Z</time>
      </trkpt>
      <trkpt lat="45.77565" lon="2.96502">
        <ele>1266.452</ele>
        <time>2021-03-28T15:01:43Z</time>
      </trkpt>
      <trkpt lat="45.77541" lon="2.9645">
        <ele>1278.853</ele>
        <time>2021-03-28T15:02:03Z</time>
      </trkpt>
      <trkpt lat="45.77454" lon="2.96592">
        <ele>1304.608</ele>
        <time>2021-03-28T15:02:23Z</time>
      </trkpt>
      <trkpt lat="45.77359" lon="2.96651">
        <ele>1333.208</ele>
        <time>2016-12-04T18:06:25Z</time>
      </trkpt>
      <trkpt lat="45.77359" lon="2.96639">
        <ele>1337.411</ele>
        <time>2016-12-04T18:06:45Z</time>
      </trkpt>
      <trkpt lat="45.77314" lon="2.96633">
        <ele>1355.333</ele>
        <time>2016-12-04T18:07:05Z</time>
      </trkpt>
      <trkpt lat="45.77259" lon="2.96694">
        <ele>1347.844</ele>
        <time>2016-12-04T18:07:25Z</time>
      </trkpt>
      <trkpt lat="45.77201" lon="2.96689">
        <ele>1360.292</ele>
        <time>2016-12-04T18:07:45Z</time>
      </trkpt>
      <trkpt lat="45.77124" lon="2.9665">
        <ele>1375.341</ele>
        <time>2016-12-04T18:08:05Z</time>
      </trkpt>
      <trkpt lat="45.77078" lon="2.96596">
        <ele>1377.07</ele>
        <time>2016-12-04T18:08:25Z</time>
      </trkpt>
      <trkpt lat="45.77057" lon="2.96497">
        <ele>1389.09</ele>
        <time>2016-12-04T18:08:45Z</time>
      </trkpt>
      <trkpt lat="45.77089" lon="2.96326">
        <ele>1414.199</ele>
        <time>2016-12-04T18:09:05Z</time>
      </trkpt>
      <trkpt lat="45.77077" lon="2.96302">
        <ele>1414.927</ele>
        <time>2016-12-04T18:09:25Z</time>
      </trkpt>
      <trkpt lat="45.77076" lon="2.96285">
        <ele>1414.968</ele>
        <time>2016-12-04T18:09:45Z</time>
      </trkpt>
      <trkpt lat="45.77082" lon="2.96254">
        <ele>1415.014</ele>
        <time>2016-12-04T18:10:05Z</time>
      </trkpt>
      <trkpt lat="45.77089" lon="2.96232">
        <ele>1412.708</ele>
        <time>2016-12-04T18:10:25Z</time>
      </trkpt>
      <trkpt lat="45.77086" lon="2.96212">
        <ele>1410.898</ele>
        <time>2016-12-04T18:10:45Z</time>
      </trkpt>
      <trkpt lat="45.77025" lon="2.9613">
        <ele>1399.97</ele>
        <time>2016-12-04T18:11:05Z</time>
      </trkpt>
      <trkpt lat="45.77007" lon="2.96086">
        <ele>1388.861</ele>
        <time>2016-12-04T18:11:25Z</time>
      </trkpt>
      <trkpt lat="45.76992" lon="2.96087">
        <ele>1382.719</ele>
        <time>2016-12-04T18:11:45Z</time>
      </trkpt>
      <trkpt lat="45.76933" lon="2.96128">
        <ele>1361.928</ele>
        <time>2016-12-04T18:12:05Z</time>
      </trkpt>
      <trkpt lat="45.76923" lon="2.96106">
        <ele>1353.357</ele>
        <time>2016-12-04T18:12:25Z</time>
      </trkpt>
      <trkpt lat="45.76972" lon="2.96043">
        <ele>1360.697</ele>
        <time>2016-12-04T18:12:45Z</time>
      </trkpt>
      <trkpt lat="45.76981" lon="2.95999">
        <ele>1345.716</ele>
        <time>2016-12-04T18:13:05Z</time>
      </trkpt>
      <trkpt lat="45.76939" lon="2.96029">
        <ele>1339.833</ele>
        <time>2016-12-04T18:13:25Z</time>
      </trkpt>
      <trkpt lat="45.76955" lon="2.95987">
        <ele>1325.123</ele>
        <time>2016-12-04T18:13:45Z</time>
      </trkpt>
      <trkpt lat="45.7692" lon="2.96005">
        <ele>1317.515</ele>
        <time>2016-12-04T18:14:05Z</time>
      </trkpt>
      <trkpt lat="45.76957" lon="2.95932">
        <ele>1302.608</ele>
        <time>2016-12-04T18:14:25Z</time>
      </trkpt>
      <trkpt lat="45.76892" lon="2.9598">
        <ele>1293.369</ele>
        <time>2016-12-04T18:14:45Z</time>
      </trkpt>
      <trkpt lat="45.76866" lon="2.95984">
        <ele>1281.451</ele>
        <time>2016-12-04T18:15:05Z</time>
      </trkpt>
      <trkpt lat="45.76887" lon="2.95961">
        <ele>1284.892</ele>
        <time>2016-12-04T18:15:25Z</time>
      </trkpt>
      <trkpt lat="45.76893" lon="2.95938">
        <ele>1277.35</ele>
        <time>2016-12-04T18:15:45Z</time>
      </trkpt>
      <trkpt lat="45.76852" lon="2.95947">
        <ele>1262.329</ele>
        <time>2016-12-04T18:16:05Z</time>
      </trkpt>
      <trkpt lat="45.76801" lon="2.96004">
        <ele>1253.098</ele>
        <time>2016-12-04T18:16:25Z</time>
      </trkpt>
      <trkpt lat="45.76777" lon="2.96057">
        <ele>1257.118</ele>
        <time>2016-12-04T18:16:45Z</time>
      </trkpt>
      <trkpt lat="45.76764" lon="2.96062">
        <ele>1245.987</ele>
        <time>2016-12-04T18:17:05Z</time>
      </trkpt>
      <trkpt lat="45.76778" lon="2.95991">
        <ele>1233.465</ele>
        <time>2016-12-04T18:17:25Z</time>
      </trkpt>
      <trkpt lat="45.76791" lon="2.95943">
        <ele>1223.868</ele>
        <time>2016-12-04T18:17:45Z</time>
      </trkpt>
      <trkpt lat="45.76753" lon="2.96003">
        <ele>1217.014</ele>
        <time>2016-12-04T18:18:05Z</time>
      </trkpt>
      <trkpt lat="45.76722" lon="2.96043">
        <ele>1203.408</ele>
        <time>2016-12-04T18:18:25Z</time>
      </trkpt>
      <trkpt lat="45.76734" lon="2.95975">
        <ele>1193.722</ele>
        <time>2016-12-04T18:18:45Z</time>
      </trkpt>
      <trkpt lat="45.76733" lon="2.95932">
        <ele>1185.194</ele>
        <time>2016-12-04T18:19:05Z</time>
      </trkpt>
      <trkpt lat="45.76779" lon="2.95795">
        <ele>1177.035</ele>
        <time>2016-12-04T18:19:25Z</time>
      </trkpt>
      <trkpt lat="45.76773" lon="2.95783">
        <ele>1172.843</ele>
        <time>2016-12-04T18:19:45Z</time>
      </trkpt>
      <trkpt lat="45.7674" lon="2.95811">
        <ele>1167.072</ele>
        <time>2016-12-04T18:20:05Z</time>
      </trkpt>
      <trkpt lat="45.76715" lon="2.95796">
        <ele>1157.481</ele>
        <time>2016-12-04T18:20:25Z</time>
      </trkpt>
      <trkpt lat="45.76703" lon="2.95752">
        <ele>1150.171</ele>
        <time>2016-12-04T18:20:45Z</time>
      </trkpt>
      <trkpt lat="45.76648" lon="2.95744">
        <ele>1141.85</ele>
        <time>2016-12-04T18:21:05Z</time>
      </trkpt>
      <trkpt lat="45.76646" lon="2.95796">
        <ele>1141.587</ele>
        <time>2016-12-04T18:21:25Z</time>
      </trkpt>
      <trkpt lat="45.76622" lon="2.95856">
        <ele>1134.442</ele>
        <time>2016-12-04T18:21:45Z</time>
      </trkpt>
      <trkpt lat="45.76604" lon="2.9582">
        <ele>1130.226</ele>
        <time>2016-12-04T18:22:05Z</time>
      </trkpt>
      <trkpt lat="45.76579" lon="2.95792">
        <ele>1127.308</ele>
        <time>2016-12-04T18:22:25Z</time>
      </trkpt>
      <trkpt lat="45.76516" lon="2.95769">
        <ele>1116.384</ele>
        <time>2016-12-04T18:22:45Z</time>
      </trkpt>
      <trkpt lat="45.765" lon="2.95728">
        <ele>1109.326</ele>
        <time>2016-12-04T18:23:05Z</time>
      </trkpt>
      <trkpt lat="45.76496" lon="2.95614">
        <ele>1096.357</ele>
        <time>2016-12-04T18:23:25Z</time>
      </trkpt>
      <trkpt lat="45.76483" lon="2.95586">
        <ele>1089.895</ele>
        <time>2016-12-04T18:23:45Z</time>
      </trkpt>
      <trkpt lat="45.76443" lon="2.95549">
        <ele>1081.514</ele>
        <time>2016-12-04T18:24:05Z</time>
      </trkpt>
      <trkpt lat="45.76391" lon="2.95554">
        <ele>1081.073</ele>
        <time>2016-12-04T18:25:05Z</time>
      </trkpt>
      <trkpt lat="45.76384" lon="2.9562">
        <ele>1076.353</ele>
        <time>2016-12-04T18:25:25Z</time>
      </trkpt>
      <trkpt lat="45.7635" lon="2.9564">
        <ele>1074.572</ele>
        <time>2021-03-28T15:21:23Z</time>
      </trkpt>
      <trkpt lat="45.76326" lon="2.95672">
        <ele>1069.348</ele>
        <time>2016-12-04T18:25:45Z</time>
      </trkpt>
      <trkpt lat="45.76317" lon="2.95669">
        <ele>1069.261</ele>
        <time>2016-12-04T18:26:05Z</time>
      </trkpt>
      <trkpt lat="45.76288" lon="2.95715">
        <ele>1063.917</ele>
        <time>2016-12-04T18:26:25Z</time>
      </trkpt>
      <trkpt lat="45.76247" lon="2.95738">
        <ele>1064.408</ele>
        <time>2016-12-04T18:26:45Z</time>
      </trkpt>
      <trkpt lat="45.76228" lon="2.95756">
        <ele>1062.58</ele>
        <time>2016-12-04T18:27:05Z</time>
      </trkpt>
      <trkpt lat="45.76203" lon="2.9576">
        <ele>1062.922</ele>
        <time>2021-01-03T17:12:10Z</time>
      </trkpt>
      <trkpt lat="45.7618" lon="2.9574">
        <ele>1066.823</ele>
        <time>2021-01-03T17:12:30Z</time>
      </trkpt>
      <trkpt lat="45.76124" lon="2.95762">
        <ele>1067.051</ele>
        <time>2021-01-03T17:12:50Z</time>
      </trkpt>
      <trkpt lat="45.76104" lon="2.9578">
        <ele>1066.01</ele>
        <time>2021-01-03T17:13:10Z</time>
      </trkpt>
      <trkpt lat="45.76036" lon="2.95766">
        <ele>1071.619</ele>
        <time>2021-01-03T17:13:30Z</time>
      </trkpt>
      <trkpt lat="45.75995" lon="2.95774">
        <ele>1072.489</ele>
        <time>2021-01-03T17:13:50Z</time>
      </trkpt>
      <trkpt lat="45.76004" lon="2.95835">
        <ele>1062.678</ele>
        <time>2021-01-03T17:14:10Z</time>
      </trkpt>
      <trkpt lat="45.75989" lon="2.95878">
        <ele>1053.563</ele>
        <time>2021-01-03T17:14:30Z</time>
      </trkpt>
      <trkpt lat="45.75915" lon="2.95888">
        <ele>1048.044</ele>
        <time>2021-01-03T17:14:50Z</time>
      </trkpt>
      <trkpt lat="45.75845" lon="2.95822">
        <ele>1056.318</ele>
        <time>2021-01-03T17:15:10Z</time>
      </trkpt>
      <trkpt lat="45.75694" lon="2.9571">
        <ele>1050.208</ele>
        <time>2021-01-03T17:15:30Z</time>
      </trkpt>
      <trkpt lat="45.75662" lon="2.95702">
        <ele>1043.152</ele>
        <time>2021-01-03T17:15:50Z</time>
      </trkpt>
      <trkpt lat="45.7567" lon="2.95775">
        <ele>1032.244</ele>
        <time>2021-01-03T17:16:10Z</time>
      </trkpt>
      <trkpt lat="45.75625" lon="2.95863">
        <ele>1013.245</ele>
        <time>2021-01-03T17:16:30Z</time>
      </trkpt>
      <trkpt lat="45.75556" lon="2.95925">
        <ele>1000.843</ele>
        <time>2021-01-03T17:16:50Z</time>
      </trkpt>
      <trkpt lat="45.75514" lon="2.95944">
        <ele>996.192</ele>
        <time>2021-01-03T17:17:10Z</time>
      </trkpt>
      <trkpt lat="45.75438" lon="2.96022">
        <ele>988.411</ele>
        <time>2021-01-03T17:17:30Z</time>
      </trkpt>
      <trkpt lat="45.75411" lon="2.96144">
        <ele>981.121</ele>
        <time>2021-01-03T17:17:50Z</time>
      </trkpt>
      <trkpt lat="45.75374" lon="2.96191">
        <ele>976.85</ele>
        <time>2021-01-03T17:18:10Z</time>
      </trkpt>
      <trkpt lat="45.75293" lon="2.9623">
        <ele>974.216</ele>
        <time>2021-01-03T17:18:30Z</time>
      </trkpt>
      <trkpt lat="45.75261" lon="2.96421">
        <ele>968.876</ele>
        <time>2021-01-03T17:18:50Z</time>
      </trkpt>
      <trkpt lat="45.75289" lon="2.9657">
        <ele>964.713</ele>
        <time>2021-03-28T15:30:23Z</time>
      </trkpt>
      <trkpt lat="45.75285" lon="2.96794">
        <ele>961.108</ele>
        <time>2021-01-03T17:19:30Z</time>
      </trkpt>
      <trkpt lat="45.75248" lon="2.96785">
        <ele>958.517</ele>
        <time>2016-12-04T18:34:45Z</time>
      </trkpt>
      <trkpt lat="45.75159" lon="2.96801">
        <ele>958.559</ele>
        <time>2016-12-04T18:35:05Z</time>
      </trkpt>
      <trkpt lat="45.74945" lon="2.96861">
        <ele>949.04</ele>
        <time>2016-12-04T18:35:25Z</time>
      </trkpt>
      <trkpt lat="45.74846" lon="2.9689">
        <ele>946.498</ele>
        <time>2016-12-04T18:35:45Z</time>
      </trkpt>
      <trkpt lat="45.74774" lon="2.96924">
        <ele>946.587</ele>
        <time>2016-12-04T18:36:05Z</time>
      </trkpt>
      <trkpt lat="45.7459" lon="2.97018">
        <ele>951.766</ele>
        <time>2016-12-04T18:36:25Z</time>
      </trkpt>
      <trkpt lat="45.74484" lon="2.96977">
        <ele>959.496</ele>
        <time>2016-12-04T18:36:45Z</time>
      </trkpt>
      <trkpt lat="45.74378" lon="2.96927">
        <ele>964.525</ele>
        <time>2016-12-04T18:37:05Z</time>
      </trkpt>
      <trkpt lat="45.7432" lon="2.9691">
        <ele>962.281</ele>
        <time>2016-12-04T18:37:25Z</time>
      </trkpt>
      <trkpt lat="45.74287" lon="2.96885">
        <ele>962.561</ele>
        <time>2016-12-04T18:37:45Z</time>
      </trkpt>
      <trkpt lat="45.74182" lon="2.9679">
        <ele>967.117</ele>
        <time>2016-12-04T18:38:05Z</time>
      </trkpt>
      <trkpt lat="45.74142" lon="2.96773">
        <ele>967.408</ele>
        <time>2016-12-04T18:38:25Z</time>
      </trkpt>
      <trkpt lat="45.74108" lon="2.96692">
        <ele>971.344</ele>
        <time>2016-12-04T18:38:45Z</time>
      </trkpt>
      <trkpt lat="45.74075" lon="2.96624">
        <ele>976.096</ele>
        <time>2016-12-04T18:39:05Z</time>
      </trkpt>
      <trkpt lat="45.74022" lon="2.96628">
        <ele>978.077</ele>
        <time>2016-12-04T18:39:25Z</time>
      </trkpt>
      <trkpt lat="45.73986" lon="2.96611">
        <ele>983.145</ele>
        <time>2016-12-04T18:39:45Z</time>
      </trkpt>
      <trkpt lat="45.73976" lon="2.96621">
        <ele>985.084</ele>
        <time>2016-12-04T18:40:05Z</time>
      </trkpt>
      <trkpt lat="45.73959" lon="2.96608">
        <ele>988.083</ele>
        <time>2016-12-04T18:40:25Z</time>
      </trkpt>
      <trkpt lat="45.73868" lon="2.96591">
        <ele>991.523</ele>
        <time>2016-12-04T18:40:45Z</time>
      </trkpt>
      <trkpt lat="45.73817" lon="2.96566">
        <ele>992.012</ele>
        <time>2016-12-04T18:41:05Z</time>
      </trkpt>
      <trkpt lat="45.73721" lon="2.96499">
        <ele>996.939</ele>
        <time>2016-12-04T18:41:25Z</time>
      </trkpt>
      <trkpt lat="45.73602" lon="2.96421">
        <ele>998.101</ele>
        <time>2016-12-04T18:41:45Z</time>
      </trkpt>
      <trkpt lat="45.73498" lon="2.96361">
        <ele>999.121</ele>
        <time>2016-12-04T18:42:05Z</time>
      </trkpt>
      <trkpt lat="45.73434" lon="2.96336">
        <ele>1000.108</ele>
        <time>2016-12-04T18:42:25Z</time>
      </trkpt>
      <trkpt lat="45.73355" lon="2.96305">
        <ele>1005.959</ele>
        <time>2016-12-04T18:42:45Z</time>
      </trkpt>
      <trkpt lat="45.73272" lon="2.96259">
        <ele>1004.771</ele>
        <time>2016-12-04T18:43:05Z</time>
      </trkpt>
      <trkpt lat="45.73133" lon="2.96164">
        <ele>1018.592</ele>
        <time>2016-12-04T18:43:25Z</time>
      </trkpt>
      <trkpt lat="45.73095" lon="2.96158">
        <ele>1020.03</ele>
        <time>2016-12-04T18:43:45Z</time>
      </trkpt>
      <trkpt lat="45.73069" lon="2.9614">
        <ele>1023.959</ele>
        <time>2016-12-04T18:44:05Z</time>
      </trkpt>
      <trkpt lat="45.73005" lon="2.96075">
        <ele>1032.648</ele>
        <time>2016-12-04T18:44:25Z</time>
      </trkpt>
      <trkpt lat="45.72992" lon="2.96029">
        <ele>1036.988</ele>
        <time>2016-12-04T18:44:45Z</time>
      </trkpt>
      <trkpt lat="45.72961" lon="2.95979">
        <ele>1041.447</ele>
        <time>2016-12-04T18:45:05Z</time>
      </trkpt>
      <trkpt lat="45.72888" lon="2.95912">
        <ele>1050.475</ele>
        <time>2016-12-04T18:45:25Z</time>
      </trkpt>
      <trkpt lat="45.7285" lon="2.95863">
        <ele>1053.928</ele>
        <time>2016-12-04T18:45:45Z</time>
      </trkpt>
      <trkpt lat="45.72834" lon="2.95806">
        <ele>1056.92</ele>
        <time>2016-12-04T18:46:05Z</time>
      </trkpt>
      <trkpt lat="45.72723" lon="2.95651">
        <ele>1065.008</ele>
        <time>2016-12-04T18:46:25Z</time>
      </trkpt>
      <trkpt lat="45.72589" lon="2.95642">
        <ele>1069.893</ele>
        <time>2016-12-04T18:46:45Z</time>
      </trkpt>
      <trkpt lat="45.72539" lon="2.95596">
        <ele>1074.985</ele>
        <time>2016-12-04T18:47:05Z</time>
      </trkpt>
      <trkpt lat="45.72479" lon="2.95529">
        <ele>1079.996</ele>
        <time>2016-12-04T18:47:25Z</time>
      </trkpt>
      <trkpt lat="45.7243" lon="2.95487">
        <ele>1078.964</ele>
        <time>2016-12-04T18:47:45Z</time>
      </trkpt>
      <trkpt lat="45.72339" lon="2.95356">
        <ele>1090.093</ele>
        <time>2016-12-04T18:48:05Z</time>
      </trkpt>
      <trkpt lat="45.723" lon="2.95319">
        <ele>1093.482</ele>
        <time>2016-12-04T18:48:25Z</time>
      </trkpt>
      <trkpt lat="45.72245" lon="2.95255">
        <ele>1096.722</ele>
        <time>2016-12-04T18:48:45Z</time>
      </trkpt>
      <trkpt lat="45.72223" lon="2.95236">
        <ele>1096.131</ele>
        <time>2016-12-04T18:49:05Z</time>
      </trkpt>
      <trkpt lat="45.72217" lon="2.95213">
        <ele>1096.615</ele>
        <time>2016-12-04T18:49:25Z</time>
      </trkpt>
      <trkpt lat="45.72205" lon="2.95211">
        <ele>1096.365</ele>
        <time>2016-12-04T18:49:45Z</time>
      </trkpt>
      <trkpt lat="45.72186" lon="2.95215">
        <ele>1096.411</ele>
        <time>2016-12-04T18:50:05Z</time>
      </trkpt>
      <trkpt lat="45.721" lon="2.95164">
        <ele>1093.808</ele>
        <time>2016-12-04T18:50:25Z</time>
      </trkpt>
      <trkpt lat="45.72051" lon="2.95138">
        <ele>1087.837</ele>
        <time>2016-12-04T18:50:45Z</time>
      </trkpt>
      <trkpt lat="45.71971" lon="2.95085">
        <ele>1083.079</ele>
        <time>2016-12-04T18:51:05Z</time>
      </trkpt>
      <trkpt lat="45.71886" lon="2.95041">
        <ele>1079.91</ele>
        <time>2016-12-04T18:51:25Z</time>
      </trkpt>
      <trkpt lat="45.71834" lon="2.94996">
        <ele>1079.938</ele>
        <time>2016-12-04T18:51:45Z</time>
      </trkpt>
      <trkpt lat="45.71778" lon="2.94942">
        <ele>1079.927</ele>
        <time>2016-12-04T18:52:05Z</time>
      </trkpt>
      <trkpt lat="45.71713" lon="2.94906">
        <ele>1078.136</ele>
        <time>2016-12-04T18:52:25Z</time>
      </trkpt>
      <trkpt lat="45.71609" lon="2.94864">
        <ele>1071.426</ele>
        <time>2016-12-04T18:52:45Z</time>
      </trkpt>
      <trkpt lat="45.71444" lon="2.94805">
        <ele>1062.085</ele>
        <time>2016-12-04T18:53:05Z</time>
      </trkpt>
      <trkpt lat="45.71399" lon="2.94762">
        <ele>1057.634</ele>
        <time>2016-12-04T18:53:25Z</time>
      </trkpt>
      <trkpt lat="45.71366" lon="2.94723">
        <ele>1054.255</ele>
        <time>2016-12-04T18:53:45Z</time>
      </trkpt>
      <trkpt lat="45.71322" lon="2.94706">
        <ele>1054.81</ele>
        <time>2016-12-04T18:54:05Z</time>
      </trkpt>
      <trkpt lat="45.71246" lon="2.94661">
        <ele>1053.208</ele>
        <time>2016-12-04T18:54:25Z</time>
      </trkpt>
      <trkpt lat="45.71216" lon="2.94627">
        <ele>1052.439</ele>
        <time>2016-12-04T18:54:45Z</time>
      </trkpt>
      <trkpt lat="45.71132" lon="2.94493">
        <ele>1048.531</ele>
        <time>2016-12-04T18:55:05Z</time>
      </trkpt>
      <trkpt lat="45.71088" lon="2.94404">
        <ele>1049.232</ele>
        <time>2016-12-04T18:55:25Z</time>
      </trkpt>
      <trkpt lat="45.7108" lon="2.94375">
        <ele>1048.16</ele>
        <time>2016-12-04T18:55:45Z</time>
      </trkpt>
      <trkpt lat="45.71046" lon="2.94298">
        <ele>1043.719</ele>
        <time>2016-12-04T18:56:05Z</time>
      </trkpt>
      <trkpt lat="45.71035" lon="2.94337">
        <ele>1043.678</ele>
        <time>2016-12-04T18:56:25Z</time>
      </trkpt>
      <trkpt lat="45.71008" lon="2.94366">
        <ele>1046.358</ele>
        <time>2016-12-04T18:56:45Z</time>
      </trkpt>
      <trkpt lat="45.70993" lon="2.94443">
        <ele>1048.597</ele>
        <time>2016-12-04T18:57:05Z</time>
      </trkpt>
      <trkpt lat="45.70951" lon="2.94526">
        <ele>1050.071</ele>
        <time>2016-12-04T18:57:25Z</time>
      </trkpt>
      <trkpt lat="45.70902" lon="2.94598">
        <ele>1050.541</ele>
        <time>2016-12-04T18:57:45Z</time>
      </trkpt>
      <trkpt lat="45.7086" lon="2.94681">
        <ele>1050.015</ele>
        <time>2016-12-04T18:58:05Z</time>
      </trkpt>
      <trkpt lat="45.70794" lon="2.9478">
        <ele>1048.008</ele>
        <time>2016-12-04T18:58:25Z</time>
      </trkpt>
      <trkpt lat="45.70741" lon="2.94853">
        <ele>1048.433</ele>
        <time>2016-12-04T18:58:45Z</time>
      </trkpt>
      <trkpt lat="45.7071" lon="2.94935">
        <ele>1045.635</ele>
        <time>2016-12-04T18:59:05Z</time>
      </trkpt>
      <trkpt lat="45.7068" lon="2.94999">
        <ele>1042.046</ele>
        <time>2016-12-04T18:59:25Z</time>
      </trkpt>
      <trkpt lat="45.70676" lon="2.95042">
        <ele>1041.074</ele>
        <time>2016-12-04T18:59:45Z</time>
      </trkpt>
      <trkpt lat="45.70673" lon="2.95145">
        <ele>1042.243</ele>
        <time>2016-12-04T19:00:05Z</time>
      </trkpt>
      <trkpt lat="45.70641" lon="2.95227">
        <ele>1036.682</ele>
        <time>2016-12-04T19:00:25Z</time>
      </trkpt>
      <trkpt lat="45.70596" lon="2.95306">
        <ele>1028.822</ele>
        <time>2016-12-04T19:00:45Z</time>
      </trkpt>
      <trkpt lat="45.70536" lon="2.95358">
        <ele>1018.921</ele>
        <time>2016-12-04T19:01:05Z</time>
      </trkpt>
      <trkpt lat="45.70488" lon="2.95421">
        <ele>1010.721</ele>
        <time>2016-12-04T19:01:25Z</time>
      </trkpt>
      <trkpt lat="45.70469" lon="2.95485">
        <ele>1006.341</ele>
        <time>2016-12-04T19:01:45Z</time>
      </trkpt>
      <trkpt lat="45.70452" lon="2.95576">
        <ele>1000.005</ele>
        <time>2016-12-04T19:02:05Z</time>
      </trkpt>
      <trkpt lat="45.70427" lon="2.95625">
        <ele>996.108</ele>
        <time>2016-12-04T19:02:25Z</time>
      </trkpt>
      <trkpt lat="45.70389" lon="2.95659">
        <ele>994.668</ele>
        <time>2016-12-04T19:02:45Z</time>
      </trkpt>
      <trkpt lat="45.7037" lon="2.95704">
        <ele>992.66</ele>
        <time>2016-12-04T19:03:05Z</time>
      </trkpt>
      <trkpt lat="45.70361" lon="2.95747">
        <ele>993.861</ele>
        <time>2016-12-04T19:03:25Z</time>
      </trkpt>
      <trkpt lat="45.70319" lon="2.95829">
        <ele>994.569</ele>
        <time>2016-12-04T19:03:45Z</time>
      </trkpt>
      <trkpt lat="45.7025" lon="2.95964">
        <ele>996.478</ele>
        <time>2016-12-04T19:04:05Z</time>
      </trkpt>
      <trkpt lat="45.70233" lon="2.95968">
        <ele>995.597</ele>
        <time>2016-12-04T19:04:25Z</time>
      </trkpt>
      <trkpt lat="45.70172" lon="2.96083">
        <ele>996.767</ele>
        <time>2016-12-04T19:04:45Z</time>
      </trkpt>
      <trkpt lat="45.70097" lon="2.96205">
        <ele>999.516</ele>
        <time>2016-12-04T19:05:05Z</time>
      </trkpt>
      <trkpt lat="45.70067" lon="2.96314">
        <ele>1005.744</ele>
        <time>2016-12-04T19:05:25Z</time>
      </trkpt>
      <trkpt lat="45.7007" lon="2.96394">
        <ele>1003.605</ele>
        <time>2016-12-04T19:05:45Z</time>
      </trkpt>
      <trkpt lat="45.7007" lon="2.96495">
        <ele>996.015</ele>
        <time>2016-12-04T19:06:05Z</time>
      </trkpt>
      <trkpt lat="45.70114" lon="2.96602">
        <ele>987.408</ele>
        <time>2016-12-04T19:06:25Z</time>
      </trkpt>
      <trkpt lat="45.70132" lon="2.96695">
        <ele>983.84</ele>
        <time>2016-12-04T19:06:45Z</time>
      </trkpt>
      <trkpt lat="45.70137" lon="2.96759">
        <ele>983.872</ele>
        <time>2016-12-04T19:07:05Z</time>
      </trkpt>
      <trkpt lat="45.70114" lon="2.96841">
        <ele>981.523</ele>
        <time>2016-12-04T19:07:25Z</time>
      </trkpt>
      <trkpt lat="45.70089" lon="2.96894">
        <ele>982.171</ele>
        <time>2016-12-04T19:07:45Z</time>
      </trkpt>
      <trkpt lat="45.69961" lon="2.97214">
        <ele>985.41</ele>
        <time>2021-01-03T17:53:10Z</time>
      </trkpt>
      <trkpt lat="45.69924" lon="2.97406">
        <ele>979.539</ele>
        <time>2021-01-03T17:53:30Z</time>
      </trkpt>
      <trkpt lat="45.69837" lon="2.9764">
        <ele>967.299</ele>
        <time>2021-01-03T17:53:50Z</time>
      </trkpt>
      <trkpt lat="45.69807" lon="2.97782">
        <ele>959.368</ele>
        <time>2021-01-03T17:54:10Z</time>
      </trkpt>
      <trkpt lat="45.69722" lon="2.97957">
        <ele>951.183</ele>
        <time>2021-01-03T17:54:30Z</time>
      </trkpt>
      <trkpt lat="45.69703" lon="2.98082">
        <ele>948.625</ele>
        <time>2021-01-03T17:54:50Z</time>
      </trkpt>
      <trkpt lat="45.69708" lon="2.98166">
        <ele>949.617</ele>
        <time>2021-01-03T17:55:10Z</time>
      </trkpt>
      <trkpt lat="45.69632" lon="2.98567">
        <ele>937.908</ele>
        <time>2021-01-03T17:55:30Z</time>
      </trkpt>
      <trkpt lat="45.69571" lon="2.9879">
        <ele>932.844</ele>
        <time>2021-01-03T17:55:50Z</time>
      </trkpt>
      <trkpt lat="45.69561" lon="2.9887">
        <ele>931.256</ele>
        <time>2021-01-03T17:56:10Z</time>
      </trkpt>
      <trkpt lat="45.69518" lon="2.98957">
        <ele>931.627</ele>
        <time>2021-01-03T17:56:30Z</time>
      </trkpt>
      <trkpt lat="45.69567" lon="2.99114">
        <ele>925.365</ele>
        <time>2021-01-03T17:56:50Z</time>
      </trkpt>
      <trkpt lat="45.69557" lon="2.99157">
        <ele>925.954</ele>
        <time>2021-01-03T17:57:10Z</time>
      </trkpt>
      <trkpt lat="45.69529" lon="2.99228">
        <ele>926.923</ele>
        <time>2021-01-03T17:57:30Z</time>
      </trkpt>
      <trkpt lat="45.69513" lon="2.99305">
        <ele>923.643</ele>
        <time>2021-01-03T17:57:50Z</time>
      </trkpt>
      <trkpt lat="45.69454" lon="2.99407">
        <ele>921.972</ele>
        <time>2021-01-03T17:58:10Z</time>
      </trkpt>
      <trkpt lat="45.69423" lon="2.99454">
        <ele>920.078</ele>
        <time>2021-01-03T17:58:30Z</time>
      </trkpt>
      <trkpt lat="45.69409" lon="2.99533">
        <ele>912.933</ele>
        <time>2021-01-03T17:58:50Z</time>
      </trkpt>
      <trkpt lat="45.69409" lon="2.99562">
        <ele>912.126</ele>
        <time>2021-01-03T17:59:10Z</time>
      </trkpt>
      <trkpt lat="45.6939" lon="2.99549">
        <ele>911.608</ele>
        <time>2021-01-03T17:59:30Z</time>
      </trkpt>
      <trkpt lat="45.6935" lon="2.99478">
        <ele>915.073</ele>
        <time>2021-01-03T17:59:50Z</time>
      </trkpt>
      <trkpt lat="45.69304" lon="2.99445">
        <ele>914.445</ele>
        <time>2021-01-03T18:00:10Z</time>
      </trkpt>
      <trkpt lat="45.69254" lon="2.99362">
        <ele>918.236</ele>
        <time>2021-01-03T18:00:30Z</time>
      </trkpt>
      <trkpt lat="45.69203" lon="2.99232">
        <ele>917.324</ele>
        <time>2021-01-03T18:00:50Z</time>
      </trkpt>
      <trkpt lat="45.69195" lon="2.99117">
        <ele>918.513</ele>
        <time>2021-01-03T18:01:10Z</time>
      </trkpt>
      <trkpt lat="45.69171" lon="2.99055">
        <ele>915.852</ele>
        <time>2021-01-03T18:01:30Z</time>
      </trkpt>
      <trkpt lat="45.69101" lon="2.98943">
        <ele>915.492</ele>
        <time>2021-01-03T18:01:50Z</time>
      </trkpt>
      <trkpt lat="45.69103" lon="2.98832">
        <ele>916.861</ele>
        <time>2021-01-03T18:02:10Z</time>
      </trkpt>
      <trkpt lat="45.69129" lon="2.98769">
        <ele>916.356</ele>
        <time>2021-01-03T18:02:30Z</time>
      </trkpt>
      <trkpt lat="45.69065" lon="2.98751">
        <ele>918.859</ele>
        <time>2021-01-03T18:02:50Z</time>
      </trkpt>
      <trkpt lat="45.69042" lon="2.98767">
        <ele>917.914</ele>
        <time>2021-01-03T18:03:10Z</time>
      </trkpt>
      <trkpt lat="45.69037" lon="2.98804">
        <ele>916.408</ele>
        <time>2021-01-03T18:03:30Z</time>
      </trkpt>
      <trkpt lat="45.69028" lon="2.98804">
        <ele>916.231</ele>
        <time>2021-01-03T18:03:50Z</time>
      </trkpt>
      <trkpt lat="45.69013" lon="2.98754">
        <ele>918.083</ele>
        <time>2021-01-03T18:04:10Z</time>
      </trkpt>
      <trkpt lat="45.68953" lon="2.987">
        <ele>919.344</ele>
        <time>2021-01-03T18:04:30Z</time>
      </trkpt>
      <trkpt lat="45.68936" lon="2.98665">
        <ele>920.882</ele>
        <time>2021-01-03T18:04:50Z</time>
      </trkpt>
      <trkpt lat="45.68897" lon="2.98692">
        <ele>917.661</ele>
        <time>2021-01-03T18:05:10Z</time>
      </trkpt>
      <trkpt lat="45.68835" lon="2.9867">
        <ele>916.04</ele>
        <time>2021-01-03T18:05:30Z</time>
      </trkpt>
      <trkpt lat="45.68761" lon="2.98538">
        <ele>911.48</ele>
        <time>2021-01-03T18:05:50Z</time>
      </trkpt>
      <trkpt lat="45.68752" lon="2.98478">
        <ele>912.389</ele>
        <time>2021-01-03T18:06:10Z</time>
      </trkpt>
      <trkpt lat="45.68681" lon="2.98416">
        <ele>912.221</ele>
        <time>2021-01-03T18:06:30Z</time>
      </trkpt>
      <trkpt lat="45.6869" lon="2.98269">
        <ele>914.841</ele>
        <time>2021-01-03T18:06:50Z</time>
      </trkpt>
      <trkpt lat="45.68622" lon="2.9818">
        <ele>917.705</ele>
        <time>2021-01-03T18:07:10Z</time>
      </trkpt>
      <trkpt lat="45.68613" lon="2.98099">
        <ele>920.308</ele>
        <time>2021-01-03T18:07:30Z</time>
      </trkpt>
      <trkpt lat="45.68582" lon="2.98063">
        <ele>921.518</ele>
        <time>2021-01-03T18:07:50Z</time>
      </trkpt>
      <trkpt lat="45.68522" lon="2.98055">
        <ele>922.99</ele>
        <time>2021-01-03T18:08:10Z</time>
      </trkpt>
      <trkpt lat="45.68477" lon="2.9799">
        <ele>923.131</ele>
        <time>2021-01-03T18:08:30Z</time>
      </trkpt>
      <trkpt lat="45.68439" lon="2.97974">
        <ele>921.699</ele>
        <time>2021-01-03T18:08:50Z</time>
      </trkpt>
      <trkpt lat="45.68385" lon="2.97987">
        <ele>918.348</ele>
        <time>2021-01-03T18:09:10Z</time>
      </trkpt>
      <trkpt lat="45.68341" lon="2.97951">
        <ele>915.247</ele>
        <time>2021-01-03T18:09:30Z</time>
      </trkpt>
      <trkpt lat="45.68214" lon="2.97947">
        <ele>909.777</ele>
        <time>2021-01-03T18:09:50Z</time>
      </trkpt>
      <trkpt lat="45.68155" lon="2.97915">
        <ele>907.786</ele>
        <time>2021-01-03T18:10:10Z</time>
      </trkpt>
      <trkpt lat="45.68109" lon="2.97837">
        <ele>904.757</ele>
        <time>2021-01-03T18:10:30Z</time>
      </trkpt>
      <trkpt lat="45.68073" lon="2.97713">
        <ele>904.8</ele>
        <time>2021-01-03T18:10:50Z</time>
      </trkpt>
      <trkpt lat="45.68042" lon="2.97655">
        <ele>906.32</ele>
        <time>2021-01-03T18:11:10Z</time>
      </trkpt>
      <trkpt lat="45.67914" lon="2.97552">
        <ele>911.908</ele>
        <time>2021-01-03T18:11:30Z</time>
      </trkpt>
      <trkpt lat="45.67827" lon="2.9739">
        <ele>912.681</ele>
        <time>2021-01-03T18:11:50Z</time>
      </trkpt>
      <trkpt lat="45.67775" lon="2.97273">
        <ele>914.313</ele>
        <time>2021-01-03T18:12:10Z</time>
      </trkpt>
      <trkpt lat="45.67697" lon="2.97177">
        <ele>919.154</ele>
        <time>2021-01-03T18:12:30Z</time>
      </trkpt>
      <trkpt lat="45.67596" lon="2.97107">
        <ele>927.162</ele>
        <time>2021-01-03T18:12:50Z</time>
      </trkpt>
      <trkpt lat="45.67519" lon="2.96952">
        <ele>937.081</ele>
        <time>2021-01-03T18:13:10Z</time>
      </trkpt>
      <trkpt lat="45.67452" lon="2.96796">
        <ele>946.23</ele>
        <time>2021-01-03T18:13:30Z</time>
      </trkpt>
      <trkpt lat="45.67426" lon="2.96752">
        <ele>946.93</ele>
        <time>2021-01-03T18:13:50Z</time>
      </trkpt>
      <trkpt lat="45.6736" lon="2.96739">
        <ele>945.079</ele>
        <time>2021-01-03T18:14:10Z</time>
      </trkpt>
      <trkpt lat="45.67127" lon="2.96791">
        <ele>942.547</ele>
        <time>2021-01-03T18:14:30Z</time>
      </trkpt>
      <trkpt lat="45.67075" lon="2.96793">
        <ele>943.029</ele>
        <time>2021-01-03T18:14:50Z</time>
      </trkpt>
      <trkpt lat="45.67056" lon="2.96785">
        <ele>942.221</ele>
        <time>2021-01-03T18:15:10Z</time>
      </trkpt>
      <trkpt lat="45.67075" lon="2.96713">
        <ele>945.008</ele>
        <time>2021-01-03T18:15:30Z</time>
      </trkpt>
      <trkpt lat="45.67059" lon="2.9657">
        <ele>952.84</ele>
        <time>2021-01-03T18:15:50Z</time>
      </trkpt>
      <trkpt lat="45.6701" lon="2.96411">
        <ele>967.962</ele>
        <time>2021-01-03T18:16:10Z</time>
      </trkpt>
      <trkpt lat="45.67013" lon="2.96351">
        <ele>969.773</ele>
        <time>2021-01-03T18:16:30Z</time>
      </trkpt>
      <trkpt lat="45.67031" lon="2.96251">
        <ele>967.711</ele>
        <time>2021-01-03T18:16:50Z</time>
      </trkpt>
      <trkpt lat="45.66894" lon="2.96194">
        <ele>958.39</ele>
        <time>2021-01-03T18:17:10Z</time>
      </trkpt>
      <trkpt lat="45.66981" lon="2.96033">
        <ele>962.239</ele>
        <time>2021-01-03T18:17:30Z</time>
      </trkpt>
      <trkpt lat="45.67094" lon="2.95799">
        <ele>969.479</ele>
        <time>2021-01-03T18:17:50Z</time>
      </trkpt>
      <trkpt lat="45.67118" lon="2.95708">
        <ele>972.638</ele>
        <time>2021-01-03T18:18:10Z</time>
      </trkpt>
      <trkpt lat="45.67153" lon="2.95654">
        <ele>975.391</ele>
        <time>2016-12-04T19:25:05Z</time>
      </trkpt>
      <trkpt lat="45.67231" lon="2.95507">
        <ele>978.081</ele>
        <time>2016-12-04T19:25:25Z</time>
      </trkpt>
      <trkpt lat="45.67312" lon="2.95322">
        <ele>978.019</ele>
        <time>2016-12-04T19:25:45Z</time>
      </trkpt>
      <trkpt lat="45.67225" lon="2.95259">
        <ele>981.908</ele>
        <time>2016-12-04T19:26:05Z</time>
      </trkpt>
      <trkpt lat="45.6708" lon="2.95144">
        <ele>995.835</ele>
        <time>2016-12-04T19:26:25Z</time>
      </trkpt>
      <trkpt lat="45.67041" lon="2.9511">
        <ele>1003.217</ele>
        <time>2016-12-04T19:26:45Z</time>
      </trkpt>
      <trkpt lat="45.66906" lon="2.95248">
        <ele>1010.628</ele>
        <time>2016-12-04T19:27:05Z</time>
      </trkpt>
      <trkpt lat="45.66841" lon="2.95293">
        <ele>1016.436</ele>
        <time>2016-12-04T19:27:25Z</time>
      </trkpt>
      <trkpt lat="45.66753" lon="2.9534">
        <ele>1027.185</ele>
        <time>2016-12-04T19:27:45Z</time>
      </trkpt>
      <trkpt lat="45.66675" lon="2.95327">
        <ele>1034.934</ele>
        <time>2016-12-04T19:28:05Z</time>
      </trkpt>
      <trkpt lat="45.66586" lon="2.95279">
        <ele>1037.014</ele>
        <time>2016-12-04T19:28:25Z</time>
      </trkpt>
      <trkpt lat="45.66478" lon="2.95164">
        <ele>1036.393</ele>
        <time>2016-12-04T19:28:45Z</time>
      </trkpt>
      <trkpt lat="45.66433" lon="2.95095">
        <ele>1033.458</ele>
        <time>2016-12-04T19:29:05Z</time>
      </trkpt>
      <trkpt lat="45.66317" lon="2.94972">
        <ele>1028.452</ele>
        <time>2016-12-04T19:29:25Z</time>
      </trkpt>
      <trkpt lat="45.6629" lon="2.94951">
        <ele>1028.217</ele>
        <time>2016-12-04T19:29:45Z</time>
      </trkpt>
      <trkpt lat="45.66378" lon="2.94818">
        <ele>1031.708</ele>
        <time>2016-12-04T19:30:05Z</time>
      </trkpt>
      <trkpt lat="45.66161" lon="2.94356">
        <ele>1030.631</ele>
        <time>2016-12-04T19:30:25Z</time>
      </trkpt>
      <trkpt lat="45.6613" lon="2.94235">
        <ele>1029.383</ele>
        <time>2016-12-04T19:30:45Z</time>
      </trkpt>
      <trkpt lat="45.66026" lon="2.93983">
        <ele>1024.444</ele>
        <time>2016-12-04T19:31:05Z</time>
      </trkpt>
      <trkpt lat="45.6599" lon="2.9393">
        <ele>1022.712</ele>
        <time>2016-12-04T19:31:25Z</time>
      </trkpt>
      <trkpt lat="45.65991" lon="2.93889">
        <ele>1022.061</ele>
        <time>2016-12-04T19:31:45Z</time>
      </trkpt>
      <trkpt lat="45.65947" lon="2.93888">
        <ele>1022.98</ele>
        <time>2016-12-04T19:32:05Z</time>
      </trkpt>
      <trkpt lat="45.65876" lon="2.93851">
        <ele>1025.44</ele>
        <time>2016-12-04T19:32:25Z</time>
      </trkpt>
      <trkpt lat="45.6583" lon="2.93841">
        <ele>1023.949</ele>
        <time>2016-12-04T19:32:45Z</time>
      </trkpt>
      <trkpt lat="45.65795" lon="2.93807">
        <ele>1025.788</ele>
        <time>2016-12-04T19:33:05Z</time>
      </trkpt>
      <trkpt lat="45.65699" lon="2.93744">
        <ele>1022.924</ele>
        <time>2016-12-04T19:33:25Z</time>
      </trkpt>
      <trkpt lat="45.65533" lon="2.93532">
        <ele>1021.326</ele>
        <time>2016-12-04T19:33:45Z</time>
      </trkpt>
      <trkpt lat="45.65433" lon="2.93457">
        <ele>1016.808</ele>
        <time>2016-12-04T19:34:05Z</time>
      </trkpt>
      <trkpt lat="45.65395" lon="2.93406">
        <ele>1013.594</ele>
        <time>2016-12-04T19:34:25Z</time>
      </trkpt>
      <trkpt lat="45.65264" lon="2.93177">
        <ele>997.716</ele>
        <time>2016-12-04T19:34:45Z</time>
      </trkpt>
      <trkpt lat="45.65187" lon="2.92892">
        <ele>988.177</ele>
        <time>2016-12-04T19:35:05Z</time>
      </trkpt>
      <trkpt lat="45.65138" lon="2.92877">
        <ele>989.795</ele>
        <time>2016-12-04T19:35:25Z</time>
      </trkpt>
      <trkpt lat="45.65093" lon="2.92924">
        <ele>994.834</ele>
        <time>2016-12-04T19:35:45Z</time>
      </trkpt>
      <trkpt lat="45.65034" lon="2.92947">
        <ele>1000.273</ele>
        <time>2016-12-04T19:36:05Z</time>
      </trkpt>
      <trkpt lat="45.6495" lon="2.92957">
        <ele>1011.743</ele>
        <time>2016-12-04T19:36:25Z</time>
      </trkpt>
      <trkpt lat="45.64897" lon="2.92979">
        <ele>1011.472</ele>
        <time>2016-12-04T19:36:45Z</time>
      </trkpt>
      <trkpt lat="45.64874" lon="2.9296">
        <ele>1011.261</ele>
        <time>2016-12-04T19:37:05Z</time>
      </trkpt>
      <trkpt lat="45.64813" lon="2.92874">
        <ele>1014.321</ele>
        <time>2016-12-04T19:37:25Z</time>
      </trkpt>
      <trkpt lat="45.64732" lon="2.92771">
        <ele>1013.413</ele>
        <time>2016-12-04T19:37:45Z</time>
      </trkpt>
      <trkpt lat="45.64695" lon="2.92685">
        <ele>1017.408</ele>
        <time>2016-12-04T19:38:05Z</time>
      </trkpt>
      <trkpt lat="45.6461" lon="2.92601">
        <ele>1025.952</ele>
        <time>2016-12-04T19:38:25Z</time>
      </trkpt>
      <trkpt lat="45.64577" lon="2.92575">
        <ele>1024.974</ele>
        <time>2016-12-04T19:38:45Z</time>
      </trkpt>
      <trkpt lat="45.64542" lon="2.92464">
        <ele>1029.835</ele>
        <time>2016-12-04T19:39:05Z</time>
      </trkpt>
      <trkpt lat="45.64463" lon="2.92306">
        <ele>1030.143</ele>
        <time>2016-12-04T19:39:25Z</time>
      </trkpt>
      <trkpt lat="45.64444" lon="2.92206">
        <ele>1029.522</ele>
        <time>2016-12-04T19:39:45Z</time>
      </trkpt>
      <trkpt lat="45.64407" lon="2.92119">
        <ele>1025.741</ele>
        <time>2016-12-04T19:40:05Z</time>
      </trkpt>
      <trkpt lat="45.64346" lon="2.92027">
        <ele>1026.411</ele>
        <time>2016-12-04T19:40:25Z</time>
      </trkpt>
      <trkpt lat="45.64321" lon="2.91904">
        <ele>1033.78</ele>
        <time>2021-03-28T16:45:23Z</time>
      </trkpt>
      <trkpt lat="45.64257" lon="2.91875">
        <ele>1031.392</ele>
        <time>2016-12-04T19:41:05Z</time>
      </trkpt>
      <trkpt lat="45.64198" lon="2.9183">
        <ele>1035.573</ele>
        <time>2016-12-04T19:41:45Z</time>
      </trkpt>
      <trkpt lat="45.64134" lon="2.91856">
        <ele>1032.02</ele>
        <time>2016-12-04T19:42:05Z</time>
      </trkpt>
      <trkpt lat="45.64107" lon="2.91843">
        <ele>1031.808</ele>
        <time>2021-03-28T16:46:43Z</time>
      </trkpt>
      <trkpt lat="45.64027" lon="2.91928">
        <ele>1036.135</ele>
        <time>2016-12-04T19:42:45Z</time>
      </trkpt>
      <trkpt lat="45.6401" lon="2.91995">
        <ele>1038.067</ele>
        <time>2016-12-04T19:43:05Z</time>
      </trkpt>
      <trkpt lat="45.63967" lon="2.92036">
        <ele>1040.188</ele>
        <time>2021-01-03T18:36:50Z</time>
      </trkpt>
      <trkpt lat="45.63903" lon="2.92058">
        <ele>1037.446</ele>
        <time>2021-01-03T18:37:10Z</time>
      </trkpt>
      <trkpt lat="45.63829" lon="2.91986">
        <ele>1039.055</ele>
        <time>2021-01-03T18:37:30Z</time>
      </trkpt>
      <trkpt lat="45.63721" lon="2.91999">
        <ele>1033.334</ele>
        <time>2021-01-03T18:37:50Z</time>
      </trkpt>
      <trkpt lat="45.636" lon="2.91879">
        <ele>1026.354</ele>
        <time>2021-01-03T18:38:10Z</time>
      </trkpt>
      <trkpt lat="45.63549" lon="2.91853">
        <ele>1023.763</ele>
        <time>2021-01-03T18:38:30Z</time>
      </trkpt>
      <trkpt lat="45.63518" lon="2.9183">
        <ele>1022.986</ele>
        <time>2021-01-03T18:38:50Z</time>
      </trkpt>
      <trkpt lat="45.63493" lon="2.91661">
        <ele>1024.26</ele>
        <time>2021-01-03T18:39:10Z</time>
      </trkpt>
      <trkpt lat="45.63455" lon="2.9164">
        <ele>1024.826</ele>
        <time>2021-01-03T18:39:30Z</time>
      </trkpt>
      <trkpt lat="45.63396" lon="2.91444">
        <ele>1028.608</ele>
        <time>2021-01-03T18:39:50Z</time>
      </trkpt>
      <trkpt lat="45.63386" lon="2.91344">
        <ele>1030.154</ele>
        <time>2021-01-03T18:40:10Z</time>
      </trkpt>
      <trkpt lat="45.63342" lon="2.9115">
        <ele>1033.096</ele>
        <time>2021-01-03T18:40:30Z</time>
      </trkpt>
      <trkpt lat="45.63327" lon="2.90966">
        <ele>1036.587</ele>
        <time>2021-01-03T18:40:50Z</time>
      </trkpt>
      <trkpt lat="45.63286" lon="2.90924">
        <ele>1037.555</ele>
        <time>2021-01-03T18:41:10Z</time>
      </trkpt>
      <trkpt lat="45.63268" lon="2.90883">
        <ele>1038.734</ele>
        <time>2021-01-03T18:41:30Z</time>
      </trkpt>
      <trkpt lat="45.63254" lon="2.908">
        <ele>1039.793</ele>
        <time>2021-01-03T18:41:50Z</time>
      </trkpt>
      <trkpt lat="45.63214" lon="2.90742">
        <ele>1042.463</ele>
        <time>2021-01-03T18:42:10Z</time>
      </trkpt>
      <trkpt lat="45.63106" lon="2.90638">
        <ele>1054.242</ele>
        <time>2021-01-03T18:42:30Z</time>
      </trkpt>
      <trkpt lat="45.6303" lon="2.90352">
        <ele>1059.118</ele>
        <time>2021-01-03T18:42:50Z</time>
      </trkpt>
      <trkpt lat="45.63014" lon="2.90236">
        <ele>1060.198</ele>
        <time>2021-01-03T18:43:10Z</time>
      </trkpt>
      <trkpt lat="45.63104" lon="2.90135">
        <ele>1063.817</ele>
        <time>2021-01-03T18:43:30Z</time>
      </trkpt>
      <trkpt lat="45.63132" lon="2.90098">
        <ele>1071.808</ele>
        <time>2021-01-03T18:43:50Z</time>
      </trkpt>
      <trkpt lat="45.63139" lon="2.90051">
        <ele>1076.057</ele>
        <time>2021-01-03T18:44:10Z</time>
      </trkpt>
      <trkpt lat="45.63135" lon="2.89979">
        <ele>1077.149</ele>
        <time>2021-01-03T18:44:30Z</time>
      </trkpt>
      <trkpt lat="45.63182" lon="2.89888">
        <ele>1083.87</ele>
        <time>2021-01-03T18:44:50Z</time>
      </trkpt>
      <trkpt lat="45.63228" lon="2.89771">
        <ele>1091.798</ele>
        <time>2021-01-03T18:45:10Z</time>
      </trkpt>
      <trkpt lat="45.63265" lon="2.89729">
        <ele>1098.797</ele>
        <time>2021-01-03T18:45:30Z</time>
      </trkpt>
      <trkpt lat="45.63302" lon="2.89703">
        <ele>1104.256</ele>
        <time>2021-01-03T18:45:50Z</time>
      </trkpt>
      <trkpt lat="45.63392" lon="2.89542">
        <ele>1120.566</ele>
        <time>2021-01-03T18:46:10Z</time>
      </trkpt>
      <trkpt lat="45.63468" lon="2.89517">
        <ele>1129.155</ele>
        <time>2016-12-04T19:44:45Z</time>
      </trkpt>
      <trkpt lat="45.63621" lon="2.89388">
        <ele>1144.413</ele>
        <time>2016-12-04T19:45:05Z</time>
      </trkpt>
      <trkpt lat="45.6344" lon="2.89145">
        <ele>1157.943</ele>
        <time>2021-03-28T16:58:03Z</time>
      </trkpt>
      <trkpt lat="45.63464" lon="2.89019">
        <ele>1172.107</ele>
        <time>2016-12-04T19:46:05Z</time>
      </trkpt>
      <trkpt lat="45.63518" lon="2.88979">
        <ele>1174.708</ele>
        <time>2016-12-04T19:46:25Z</time>
      </trkpt>
      <trkpt lat="45.63626" lon="2.88967">
        <ele>1168.277</ele>
        <time>2021-03-28T16:59:03Z</time>
      </trkpt>
      <trkpt lat="45.63628" lon="2.88906">
        <ele>1171.279</ele>
        <time>2016-12-04T19:48:25Z</time>
      </trkpt>
      <trkpt lat="45.63697" lon="2.88913">
        <ele>1167.82</ele>
        <time>2016-12-04T19:48:45Z</time>
      </trkpt>
      <trkpt lat="45.63818" lon="2.88783">
        <ele>1164.448</ele>
        <time>2016-12-04T19:49:05Z</time>
      </trkpt>
      <trkpt lat="45.63892" lon="2.88642">
        <ele>1167.657</ele>
        <time>2016-12-04T19:49:25Z</time>
      </trkpt>
      <trkpt lat="45.63973" lon="2.88435">
        <ele>1161.186</ele>
        <time>2016-12-04T19:49:45Z</time>
      </trkpt>
      <trkpt lat="45.64034" lon="2.8826">
        <ele>1157.666</ele>
        <time>2016-12-04T19:50:05Z</time>
      </trkpt>
      <trkpt lat="45.64085" lon="2.8822">
        <ele>1152.375</ele>
        <time>2016-12-04T19:50:25Z</time>
      </trkpt>
      <trkpt lat="45.64274" lon="2.88178">
        <ele>1139.977</ele>
        <time>2016-12-04T19:50:45Z</time>
      </trkpt>
      <trkpt lat="45.64346" lon="2.882">
        <ele>1135.061</ele>
        <time>2016-12-04T19:51:05Z</time>
      </trkpt>
      <trkpt lat="45.64412" lon="2.8818">
        <ele>1131.827</ele>
        <time>2016-12-04T19:51:25Z</time>
      </trkpt>
      <trkpt lat="45.6447" lon="2.88121">
        <ele>1130.908</ele>
        <time>2016-12-04T19:51:45Z</time>
      </trkpt>
      <trkpt lat="45.64505" lon="2.88118">
        <ele>1130.063</ele>
        <time>2016-12-04T19:52:05Z</time>
      </trkpt>
      <trkpt lat="45.64565" lon="2.88083">
        <ele>1129.095</ele>
        <time>2016-12-04T19:52:25Z</time>
      </trkpt>
      <trkpt lat="45.64618" lon="2.88066">
        <ele>1122.516</ele>
        <time>2016-12-04T19:52:45Z</time>
      </trkpt>
      <trkpt lat="45.64686" lon="2.88093">
        <ele>1117.944</ele>
        <time>2016-12-04T19:53:05Z</time>
      </trkpt>
      <trkpt lat="45.64741" lon="2.8807">
        <ele>1117.693</ele>
        <time>2016-12-04T19:53:25Z</time>
      </trkpt>
      <trkpt lat="45.64741" lon="2.8807">
        <ele>1117.692</ele>
        <time>2016-12-04T19:53:45Z</time>
      </trkpt>
      <trkpt lat="45.64769" lon="2.88084">
        <ele>1116.612</ele>
        <time>2016-12-04T19:54:05Z</time>
      </trkpt>
      <trkpt lat="45.64793" lon="2.88074">
        <ele>1120.311</ele>
        <time>2016-12-04T19:54:25Z</time>
      </trkpt>
      <trkpt lat="45.64759" lon="2.88039">
        <ele>1122.972</ele>
        <time>2016-12-04T19:54:45Z</time>
      </trkpt>
      <trkpt lat="45.64742" lon="2.88018">
        <ele>1125.013</ele>
        <time>2016-12-04T19:55:05Z</time>
      </trkpt>
      <trkpt lat="45.64673" lon="2.87923">
        <ele>1128.214</ele>
        <time>2016-12-04T19:55:25Z</time>
      </trkpt>
      <trkpt lat="45.64594" lon="2.87868">
        <ele>1130.608</ele>
        <time>2016-12-04T19:55:45Z</time>
      </trkpt>
      <trkpt lat="45.64553" lon="2.87827">
        <ele>1130.613</ele>
        <time>2016-12-04T19:56:05Z</time>
      </trkpt>
      <trkpt lat="45.64535" lon="2.87786">
        <ele>1134.615</ele>
        <time>2016-12-04T19:56:25Z</time>
      </trkpt>
      <trkpt lat="45.6451" lon="2.87745">
        <ele>1137.396</ele>
        <time>2016-12-04T19:56:45Z</time>
      </trkpt>
      <trkpt lat="45.64502" lon="2.8767">
        <ele>1144.724</ele>
        <time>2016-12-04T19:57:05Z</time>
      </trkpt>
      <trkpt lat="45.6451" lon="2.8761">
        <ele>1147.863</ele>
        <time>2016-12-04T19:57:25Z</time>
      </trkpt>
      <trkpt lat="45.64504" lon="2.87524">
        <ele>1152.422</ele>
        <time>2016-12-04T19:57:45Z</time>
      </trkpt>
      <trkpt lat="45.64514" lon="2.87453">
        <ele>1156.292</ele>
        <time>2016-12-04T19:58:05Z</time>
      </trkpt>
      <trkpt lat="45.64493" lon="2.87213">
        <ele>1176.451</ele>
        <time>2016-12-04T19:58:25Z</time>
      </trkpt>
      <trkpt lat="45.6452" lon="2.87185">
        <ele>1179.135</ele>
        <time>2016-12-04T19:58:45Z</time>
      </trkpt>
      <trkpt lat="45.64522" lon="2.87127">
        <ele>1181.486</ele>
        <time>2016-12-04T19:59:05Z</time>
      </trkpt>
      <trkpt lat="45.6455" lon="2.87093">
        <ele>1182.514</ele>
        <time>2016-12-04T19:59:25Z</time>
      </trkpt>
      <trkpt lat="45.64556" lon="2.87029">
        <ele>1185.908</ele>
        <time>2016-12-04T19:59:45Z</time>
      </trkpt>
      <trkpt lat="45.64666" lon="2.86889">
        <ele>1180.219</ele>
        <time>2016-12-04T20:00:05Z</time>
      </trkpt>
      <trkpt lat="45.64709" lon="2.86685">
        <ele>1181.761</ele>
        <time>2016-12-04T20:00:25Z</time>
      </trkpt>
      <trkpt lat="45.64733" lon="2.86629">
        <ele>1180.972</ele>
        <time>2016-12-04T20:00:45Z</time>
      </trkpt>
      <trkpt lat="45.64724" lon="2.86565">
        <ele>1187.94</ele>
        <time>2016-12-04T20:01:05Z</time>
      </trkpt>
      <trkpt lat="45.64724" lon="2.86499">
        <ele>1194.199</ele>
        <time>2016-12-04T20:01:25Z</time>
      </trkpt>
      <trkpt lat="45.64734" lon="2.86258">
        <ele>1210.228</ele>
        <time>2021-03-28T17:12:43Z</time>
      </trkpt>
      <trkpt lat="45.64719" lon="2.86232">
        <ele>1211.288</ele>
        <time>2021-03-28T17:13:03Z</time>
      </trkpt>
      <trkpt lat="45.6472" lon="2.86162">
        <ele>1211.437</ele>
        <time>2021-03-28T17:13:23Z</time>
      </trkpt>
      <trkpt lat="45.64737" lon="2.86078">
        <ele>1211.813</ele>
        <time>2021-03-28T17:13:43Z</time>
      </trkpt>
      <trkpt lat="45.64772" lon="2.86019">
        <ele>1211.743</ele>
        <time>2021-03-28T17:14:03Z</time>
      </trkpt>
      <trkpt lat="45.64795" lon="2.85853">
        <ele>1213.707</ele>
        <time>2016-12-04T20:03:05Z</time>
      </trkpt>
      <trkpt lat="45.6478" lon="2.85722">
        <ele>1212.308</ele>
        <time>2016-12-04T20:03:25Z</time>
      </trkpt>
      <trkpt lat="45.64919" lon="2.85847">
        <ele>1224.957</ele>
        <time>2016-12-04T20:03:45Z</time>
      </trkpt>
      <trkpt lat="45.65133" lon="2.85442">
        <ele>1195.349</ele>
        <time>2016-12-04T20:04:05Z</time>
      </trkpt>
      <trkpt lat="45.6522" lon="2.85461">
        <ele>1190.18</ele>
        <time>2016-12-04T20:04:25Z</time>
      </trkpt>
      <trkpt lat="45.65332" lon="2.85429">
        <ele>1175.628</ele>
        <time>2016-12-04T20:04:45Z</time>
      </trkpt>
      <trkpt lat="45.65325" lon="2.8539">
        <ele>1178.497</ele>
        <time>2016-12-04T20:05:05Z</time>
      </trkpt>
      <trkpt lat="45.65484" lon="2.85405">
        <ele>1167.656</ele>
        <time>2016-12-04T20:06:05Z</time>
      </trkpt>
      <trkpt lat="45.65555" lon="2.85339">
        <ele>1156.996</ele>
        <time>2016-12-04T20:06:25Z</time>
      </trkpt>
      <trkpt lat="45.65659" lon="2.852">
        <ele>1149.765</ele>
        <time>2016-12-04T20:06:45Z</time>
      </trkpt>
      <trkpt lat="45.65699" lon="2.8514">
        <ele>1144.397</ele>
        <time>2016-12-04T20:07:05Z</time>
      </trkpt>
      <trkpt lat="45.65759" lon="2.85083">
        <ele>1140.023</ele>
        <time>2016-12-04T20:07:25Z</time>
      </trkpt>
      <trkpt lat="45.65889" lon="2.85058">
        <ele>1127.825</ele>
        <time>2016-12-04T20:07:45Z</time>
      </trkpt>
      <trkpt lat="45.66136" lon="2.84913">
        <ele>1106.408</ele>
        <time>2016-12-04T20:08:05Z</time>
      </trkpt>
      <trkpt lat="45.66199" lon="2.84883">
        <ele>1094.285</ele>
        <time>2016-12-04T20:08:25Z</time>
      </trkpt>
      <trkpt lat="45.66205" lon="2.84779">
        <ele>1093.177</ele>
        <time>2016-12-04T20:08:45Z</time>
      </trkpt>
      <trkpt lat="45.66267" lon="2.84756">
        <ele>1087.488</ele>
        <time>2016-12-04T20:09:05Z</time>
      </trkpt>
      <trkpt lat="45.66315" lon="2.84715">
        <ele>1086.836</ele>
        <time>2016-12-04T20:09:25Z</time>
      </trkpt>
      <trkpt lat="45.66353" lon="2.84753">
        <ele>1089.445</ele>
        <time>2016-12-04T20:09:45Z</time>
      </trkpt>
      <trkpt lat="45.66534" lon="2.84869">
        <ele>1079.744</ele>
        <time>2016-12-04T20:10:05Z</time>
      </trkpt>
      <trkpt lat="45.66623" lon="2.84912">
        <ele>1073.434</ele>
        <time>2016-12-04T20:10:25Z</time>
      </trkpt>
      <trkpt lat="45.66737" lon="2.84945">
        <ele>1063.893</ele>
        <time>2016-12-04T20:10:45Z</time>
      </trkpt>
      <trkpt lat="45.6702" lon="2.8507">
        <ele>1038.942</ele>
        <time>2016-12-04T20:11:05Z</time>
      </trkpt>
      <trkpt lat="45.67197" lon="2.8512">
        <ele>1032.422</ele>
        <time>2016-12-04T20:11:25Z</time>
      </trkpt>
      <trkpt lat="45.67167" lon="2.85057">
        <ele>1030.014</ele>
        <time>2016-12-04T20:11:45Z</time>
      </trkpt>
      <trkpt lat="45.6712" lon="2.84992">
        <ele>1026.508</ele>
        <time>2016-12-04T20:12:05Z</time>
      </trkpt>
      <trkpt lat="45.67204" lon="2.84991">
        <ele>1025.05</ele>
        <time>2016-12-04T20:12:25Z</time>
      </trkpt>
      <trkpt lat="45.67241" lon="2.8494">
        <ele>1021.832</ele>
        <time>2016-12-04T20:12:45Z</time>
      </trkpt>
      <trkpt lat="45.67316" lon="2.84675">
        <ele>1005.213</ele>
        <time>2016-12-04T20:13:05Z</time>
      </trkpt>
      <trkpt lat="45.67304" lon="2.8461">
        <ele>994.391</ele>
        <time>2016-12-04T20:13:25Z</time>
      </trkpt>
      <trkpt lat="45.67326" lon="2.84599">
        <ele>991.91</ele>
        <time>2016-12-04T20:13:45Z</time>
      </trkpt>
      <trkpt lat="45.67368" lon="2.84648">
        <ele>995.119</ele>
        <time>2016-12-04T20:14:05Z</time>
      </trkpt>
      <trkpt lat="45.6742" lon="2.84666">
        <ele>992.159</ele>
        <time>2016-12-04T20:14:25Z</time>
      </trkpt>
      <trkpt lat="45.67458" lon="2.84636">
        <ele>984.338</ele>
        <time>2016-12-04T20:14:45Z</time>
      </trkpt>
      <trkpt lat="45.67501" lon="2.84562">
        <ele>961.696</ele>
        <time>2016-12-04T20:15:05Z</time>
      </trkpt>
      <trkpt lat="45.67551" lon="2.84435">
        <ele>942.631</ele>
        <time>2016-12-04T20:15:25Z</time>
      </trkpt>
      <trkpt lat="45.67628" lon="2.84297">
        <ele>927.524</ele>
        <time>2016-12-04T20:15:45Z</time>
      </trkpt>
      <trkpt lat="45.67713" lon="2.84217">
        <ele>911.608</ele>
        <time>2016-12-04T20:16:05Z</time>
      </trkpt>
      <trkpt lat="45.67802" lon="2.84199">
        <ele>904.025</ele>
        <time>2021-03-28T17:27:03Z</time>
      </trkpt>
      <trkpt lat="45.6791" lon="2.84196">
        <ele>893.727</ele>
        <time>2016-12-04T20:16:25Z</time>
      </trkpt>
      <trkpt lat="45.67976" lon="2.84219">
        <ele>893.698</ele>
        <time>2016-12-04T20:16:45Z</time>
      </trkpt>
      <trkpt lat="45.68031" lon="2.84256">
        <ele>893.616</ele>
        <time>2016-12-04T20:17:05Z</time>
      </trkpt>
      <trkpt lat="45.68111" lon="2.84284">
        <ele>886.615</ele>
        <time>2016-12-04T20:17:25Z</time>
      </trkpt>
      <trkpt lat="45.68467" lon="2.84393">
        <ele>884.864</ele>
        <time>2016-12-04T20:17:45Z</time>
      </trkpt>
      <trkpt lat="45.685" lon="2.84426">
        <ele>892.644</ele>
        <time>2016-12-04T20:18:05Z</time>
      </trkpt>
      <trkpt lat="45.6847" lon="2.8447">
        <ele>902.673</ele>
        <time>2016-12-04T20:18:25Z</time>
      </trkpt>
      <trkpt lat="45.68472" lon="2.84523">
        <ele>914.987</ele>
        <time>2016-12-04T20:18:45Z</time>
      </trkpt>
      <trkpt lat="45.6858" lon="2.84522">
        <ele>922.042</ele>
        <time>2016-12-04T20:19:05Z</time>
      </trkpt>
      <trkpt lat="45.68809" lon="2.84471">
        <ele>925.026</ele>
        <time>2016-12-04T20:19:25Z</time>
      </trkpt>
      <trkpt lat="45.68875" lon="2.84483">
        <ele>930.108</ele>
        <time>2016-12-04T20:19:45Z</time>
      </trkpt>
      <trkpt lat="45.68961" lon="2.84453">
        <ele>927.754</ele>
        <time>2016-12-04T20:20:05Z</time>
      </trkpt>
      <trkpt lat="45.69007" lon="2.84396">
        <ele>920.356</ele>
        <time>2016-12-04T20:20:25Z</time>
      </trkpt>
      <trkpt lat="45.69089" lon="2.84359">
        <ele>916.567</ele>
        <time>2016-12-04T20:20:45Z</time>
      </trkpt>
      <trkpt lat="45.69166" lon="2.8439">
        <ele>910.595</ele>
        <time>2016-12-04T20:21:05Z</time>
      </trkpt>
      <trkpt lat="45.6931" lon="2.84458">
        <ele>901.964</ele>
        <time>2016-12-04T20:21:25Z</time>
      </trkpt>
      <trkpt lat="45.69341" lon="2.84446">
        <ele>901.133</ele>
        <time>2016-12-04T20:21:45Z</time>
      </trkpt>
      <trkpt lat="45.69399" lon="2.84424">
        <ele>899.763</ele>
        <time>2016-12-04T20:22:05Z</time>
      </trkpt>
      <trkpt lat="45.69497" lon="2.84412">
        <ele>894.512</ele>
        <time>2016-12-04T20:22:25Z</time>
      </trkpt>
      <trkpt lat="45.69585" lon="2.84486">
        <ele>894.535</ele>
        <time>2016-12-04T20:22:45Z</time>
      </trkpt>
      <trkpt lat="45.6961" lon="2.84524">
        <ele>896.886</ele>
        <time>2016-12-04T20:23:05Z</time>
      </trkpt>
      <trkpt lat="45.69625" lon="2.84498">
        <ele>893.314</ele>
        <time>2016-12-04T20:23:25Z</time>
      </trkpt>
      <trkpt lat="45.69618" lon="2.84403">
        <ele>887.808</ele>
        <time>2016-12-04T20:23:45Z</time>
      </trkpt>
      <trkpt lat="45.69633" lon="2.84365">
        <ele>883.919</ele>
        <time>2016-12-04T20:24:05Z</time>
      </trkpt>
      <trkpt lat="45.69682" lon="2.84334">
        <ele>881.581</ele>
        <time>2016-12-04T20:24:25Z</time>
      </trkpt>
      <trkpt lat="45.6969" lon="2.84305">
        <ele>880.142</ele>
        <time>2016-12-04T20:24:45Z</time>
      </trkpt>
      <trkpt lat="45.69668" lon="2.84205">
        <ele>877.01</ele>
        <time>2016-12-04T20:25:05Z</time>
      </trkpt>
      <trkpt lat="45.69678" lon="2.84158">
        <ele>872.819</ele>
        <time>2016-12-04T20:25:25Z</time>
      </trkpt>
      <trkpt lat="45.7006" lon="2.83843">
        <ele>857.138</ele>
        <time>2021-03-28T17:36:43Z</time>
      </trkpt>
      <trkpt lat="45.70107" lon="2.83784">
        <ele>852.288</ele>
        <time>2021-03-28T17:37:03Z</time>
      </trkpt>
      <trkpt lat="45.70231" lon="2.83733">
        <ele>849.477</ele>
        <time>2016-12-04T20:26:05Z</time>
      </trkpt>
      <trkpt lat="45.70241" lon="2.83704">
        <ele>846.845</ele>
        <time>2016-12-04T20:26:25Z</time>
      </trkpt>
      <trkpt lat="45.70279" lon="2.83685">
        <ele>843.547</ele>
        <time>2016-12-04T20:26:45Z</time>
      </trkpt>
      <trkpt lat="45.70317" lon="2.8371">
        <ele>840.911</ele>
        <time>2016-12-04T20:27:05Z</time>
      </trkpt>
      <trkpt lat="45.70401" lon="2.83723">
        <ele>826.708</ele>
        <time>2016-12-04T20:27:25Z</time>
      </trkpt>
      <trkpt lat="45.70466" lon="2.83741">
        <ele>813.94</ele>
        <time>2016-12-04T20:27:45Z</time>
      </trkpt>
      <trkpt lat="45.70499" lon="2.83781">
        <ele>811.892</ele>
        <time>2016-12-04T20:28:05Z</time>
      </trkpt>
      <trkpt lat="45.70544" lon="2.83721">
        <ele>814.563</ele>
        <time>2016-12-04T20:28:25Z</time>
      </trkpt>
      <trkpt lat="45.7059" lon="2.83713">
        <ele>821.081</ele>
        <time>2016-12-04T20:28:45Z</time>
      </trkpt>
      <trkpt lat="45.7061" lon="2.83732">
        <ele>823.65</ele>
        <time>2016-12-04T20:29:05Z</time>
      </trkpt>
      <trkpt lat="45.70619" lon="2.83821">
        <ele>821.729</ele>
        <time>2016-12-04T20:29:25Z</time>
      </trkpt>
      <trkpt lat="45.70637" lon="2.83857">
        <ele>821.839</ele>
        <time>2016-12-04T20:29:45Z</time>
      </trkpt>
      <trkpt lat="45.70641" lon="2.8391">
        <ele>823.738</ele>
        <time>2016-12-04T20:30:05Z</time>
      </trkpt>
      <trkpt lat="45.70664" lon="2.83962">
        <ele>823.742</ele>
        <time>2016-12-04T20:30:25Z</time>
      </trkpt>
      <trkpt lat="45.708" lon="2.83999">
        <ele>813.322</ele>
        <time>2016-12-04T20:30:45Z</time>
      </trkpt>
      <trkpt lat="45.70898" lon="2.84066">
        <ele>812.514</ele>
        <time>2021-03-28T17:42:23Z</time>
      </trkpt>
      <trkpt lat="45.71032" lon="2.84104">
        <ele>810.708</ele>
        <time>2016-12-04T20:31:25Z</time>
      </trkpt>
      <trkpt lat="45.71124" lon="2.84106">
        <ele>803.26</ele>
        <time>2016-12-04T20:31:45Z</time>
      </trkpt>
      <trkpt lat="45.71238" lon="2.84136">
        <ele>794.412</ele>
        <time>2016-12-04T20:32:05Z</time>
      </trkpt>
      <trkpt lat="45.71312" lon="2.84218">
        <ele>788.743</ele>
        <time>2016-12-04T20:32:25Z</time>
      </trkpt>
      <trkpt lat="45.71411" lon="2.84256">
        <ele>788.881</ele>
        <time>2016-12-04T20:32:45Z</time>
      </trkpt>
      <trkpt lat="45.71454" lon="2.84146">
        <ele>782.65</ele>
        <time>2016-12-04T20:33:05Z</time>
      </trkpt>
      <trkpt lat="45.71491" lon="2.84111">
        <ele>776.419</ele>
        <time>2016-12-04T20:33:25Z</time>
      </trkpt>
      <trkpt lat="45.71525" lon="2.84125">
        <ele>773.939</ele>
        <time>2016-12-04T20:33:45Z</time>
      </trkpt>
      <trkpt lat="45.7157" lon="2.84178">
        <ele>770.618</ele>
        <time>2016-12-04T20:34:05Z</time>
      </trkpt>
      <trkpt lat="45.71594" lon="2.84175">
        <ele>765.344</ele>
        <time>2016-12-04T20:34:25Z</time>
      </trkpt>
      <trkpt lat="45.71617" lon="2.84198">
        <ele>762.305</ele>
        <time>2016-12-04T20:34:45Z</time>
      </trkpt>
      <trkpt lat="45.7165" lon="2.84305">
        <ele>764.015</ele>
        <time>2016-12-04T20:35:05Z</time>
      </trkpt>
      <trkpt lat="45.71724" lon="2.84445">
        <ele>756.008</ele>
        <time>2016-12-04T20:35:25Z</time>
      </trkpt>
      <trkpt lat="45.71811" lon="2.84547">
        <ele>753.85</ele>
        <time>2016-12-04T20:35:45Z</time>
      </trkpt>
      <trkpt lat="45.71913" lon="2.84576">
        <ele>752.222</ele>
        <time>2016-12-04T20:36:05Z</time>
      </trkpt>
      <trkpt lat="45.7194" lon="2.84659">
        <ele>754.483</ele>
        <time>2016-12-04T20:36:25Z</time>
      </trkpt>
      <trkpt lat="45.71987" lon="2.84748">
        <ele>758.381</ele>
        <time>2016-12-04T20:36:45Z</time>
      </trkpt>
      <trkpt lat="45.72004" lon="2.8484">
        <ele>765.58</ele>
        <time>2016-12-04T20:37:05Z</time>
      </trkpt>
      <trkpt lat="45.72054" lon="2.84817">
        <ele>760.819</ele>
        <time>2016-12-04T20:37:25Z</time>
      </trkpt>
      <trkpt lat="45.72161" lon="2.84839">
        <ele>764.649</ele>
        <time>2021-03-28T17:49:03Z</time>
      </trkpt>
      <trkpt lat="45.72232" lon="2.84839">
        <ele>770.738</ele>
        <time>2016-12-04T20:38:05Z</time>
      </trkpt>
      <trkpt lat="45.72374" lon="2.84896">
        <ele>782.881</ele>
        <time>2016-12-04T20:38:25Z</time>
      </trkpt>
      <trkpt lat="45.72488" lon="2.84935">
        <ele>790.561</ele>
        <time>2016-12-04T20:38:45Z</time>
      </trkpt>
      <trkpt lat="45.72483" lon="2.85092">
        <ele>812.017</ele>
        <time>2016-12-04T20:39:05Z</time>
      </trkpt>
      <trkpt lat="45.7254" lon="2.85124">
        <ele>812.308</ele>
        <time>2016-12-04T20:39:25Z</time>
      </trkpt>
      <trkpt lat="45.72639" lon="2.85233">
        <ele>818.294</ele>
        <time>2016-12-04T20:39:45Z</time>
      </trkpt>
      <trkpt lat="45.72689" lon="2.8524">
        <ele>807.326</ele>
        <time>2016-12-04T20:40:05Z</time>
      </trkpt>
      <trkpt lat="45.7275" lon="2.85238">
        <ele>806.117</ele>
        <time>2016-12-04T20:40:25Z</time>
      </trkpt>
      <trkpt lat="45.72863" lon="2.85283">
        <ele>792.945</ele>
        <time>2016-12-04T20:40:45Z</time>
      </trkpt>
      <trkpt lat="45.72908" lon="2.85377">
        <ele>789.944</ele>
        <time>2016-12-04T20:41:05Z</time>
      </trkpt>
      <trkpt lat="45.72956" lon="2.85402">
        <ele>789.683</ele>
        <time>2016-12-04T20:41:25Z</time>
      </trkpt>
      <trkpt lat="45.72987" lon="2.85428">
        <ele>790.863</ele>
        <time>2016-12-04T20:41:45Z</time>
      </trkpt>
      <trkpt lat="45.73098" lon="2.85475">
        <ele>789.782</ele>
        <time>2016-12-04T20:42:05Z</time>
      </trkpt>
      <trkpt lat="45.73173" lon="2.85547">
        <ele>790.734</ele>
        <time>2016-12-04T20:42:25Z</time>
      </trkpt>
      <trkpt lat="45.73296" lon="2.85626">
        <ele>786.255</ele>
        <time>2016-12-04T20:42:45Z</time>
      </trkpt>
      <trkpt lat="45.73392" lon="2.85713">
        <ele>784.91</ele>
        <time>2016-12-04T20:43:05Z</time>
      </trkpt>
      <trkpt lat="45.73509" lon="2.85548">
        <ele>781.908</ele>
        <time>2016-12-04T20:43:25Z</time>
      </trkpt>
      <trkpt lat="45.73573" lon="2.85739">
        <ele>779.599</ele>
        <time>2016-12-04T20:43:45Z</time>
      </trkpt>
      <trkpt lat="45.73682" lon="2.85771">
        <ele>773.631</ele>
        <time>2016-12-04T20:44:05Z</time>
      </trkpt>
      <trkpt lat="45.73731" lon="2.85961">
        <ele>765.292</ele>
        <time>2021-03-28T17:55:43Z</time>
      </trkpt>
      <trkpt lat="45.73786" lon="2.86002">
        <ele>763.22</ele>
        <time>2016-12-04T20:44:45Z</time>
      </trkpt>
      <trkpt lat="45.73878" lon="2.86096">
        <ele>751.419</ele>
        <time>2016-12-04T20:45:05Z</time>
      </trkpt>
      <trkpt lat="45.73881" lon="2.86244">
        <ele>746.758</ele>
        <time>2016-12-04T20:45:25Z</time>
      </trkpt>
      <trkpt lat="45.73924" lon="2.86256">
        <ele>741.188</ele>
        <time>2016-12-04T20:45:45Z</time>
      </trkpt>
      <trkpt lat="45.73953" lon="2.8636">
        <ele>739.067</ele>
        <time>2016-12-04T20:46:05Z</time>
      </trkpt>
      <trkpt lat="45.74011" lon="2.86391">
        <ele>741.939</ele>
        <time>2016-12-04T20:46:25Z</time>
      </trkpt>
      <trkpt lat="45.74067" lon="2.86478">
        <ele>746.101</ele>
        <time>2016-12-04T20:46:45Z</time>
      </trkpt>
      <trkpt lat="45.74155" lon="2.86551">
        <ele>745.421</ele>
        <time>2016-12-04T20:47:05Z</time>
      </trkpt>
      <trkpt lat="45.74266" lon="2.86609">
        <ele>746.608</ele>
        <time>2016-12-04T20:47:25Z</time>
      </trkpt>
      <trkpt lat="45.7434" lon="2.86657">
        <ele>755.939</ele>
        <time>2016-12-04T20:47:45Z</time>
      </trkpt>
      <trkpt lat="45.74396" lon="2.86631">
        <ele>758.991</ele>
        <time>2016-12-04T20:48:05Z</time>
      </trkpt>
      <trkpt lat="45.74408" lon="2.86632">
        <ele>759.912</ele>
        <time>2016-12-04T20:48:25Z</time>
      </trkpt>
      <trkpt lat="45.74458" lon="2.86598">
        <ele>757.14</ele>
        <time>2016-12-04T20:48:45Z</time>
      </trkpt>
      <trkpt lat="45.74529" lon="2.86637">
        <ele>758.889</ele>
        <time>2016-12-04T20:49:05Z</time>
      </trkpt>
      <trkpt lat="45.74571" lon="2.86618">
        <ele>758.068</ele>
        <time>2016-12-04T20:49:25Z</time>
      </trkpt>
      <trkpt lat="45.7473" lon="2.8664">
        <ele>758.078</ele>
        <time>2016-12-04T20:49:45Z</time>
      </trkpt>
      <trkpt lat="45.74802" lon="2.86729">
        <ele>756.187</ele>
        <time>2016-12-04T20:50:05Z</time>
      </trkpt>
      <trkpt lat="45.74861" lon="2.86825">
        <ele>754.349</ele>
        <time>2016-12-04T20:50:25Z</time>
      </trkpt>
      <trkpt lat="45.75005" lon="2.86881">
        <ele>748.802</ele>
        <time>2016-12-04T20:50:45Z</time>
      </trkpt>
      <trkpt lat="45.75148" lon="2.86908">
        <ele>743.822</ele>
        <time>2016-12-04T20:51:05Z</time>
      </trkpt>
      <trkpt lat="45.75211" lon="2.86934">
        <ele>741.208</ele>
        <time>2016-12-04T20:51:25Z</time>
      </trkpt>
      <trkpt lat="45.75288" lon="2.8695">
        <ele>741.45</ele>
        <time>2016-12-04T20:51:45Z</time>
      </trkpt>
      <trkpt lat="45.75398" lon="2.87001">
        <ele>743.082</ele>
        <time>2021-03-28T18:03:23Z</time>
      </trkpt>
      <trkpt lat="45.75436" lon="2.87039">
        <ele>743.853</ele>
        <time>2021-03-28T18:03:43Z</time>
      </trkpt>
      <trkpt lat="45.75572" lon="2.87109">
        <ele>750.791</ele>
        <time>2016-12-04T20:52:45Z</time>
      </trkpt>
      <trkpt lat="45.7564" lon="2.87114">
        <ele>755.49</ele>
        <time>2016-12-04T20:53:05Z</time>
      </trkpt>
      <trkpt lat="45.75669" lon="2.87122">
        <ele>757.669</ele>
        <time>2016-12-04T20:53:25Z</time>
      </trkpt>
      <trkpt lat="45.75731" lon="2.87177">
        <ele>766.6</ele>
      </trkpt>
      <trkpt lat="45.75794" lon="2.87165">
        <ele>771.1</ele>
      </trkpt>
      <trkpt lat="45.75842" lon="2.87233">
        <ele>785.6</ele>
      </trkpt>
      <trkpt lat="45.75858" lon="2.87346">
        <ele>796.5</ele>
      </trkpt>
      <trkpt lat="45.76158" lon="2.87714">
        <ele>800.2</ele>
      </trkpt>
      <trkpt lat="45.76229" lon="2.87879">
        <ele>801.7</ele>
      </trkpt>
      <trkpt lat="45.76509" lon="2.88371">
        <ele>798.7</ele>
      </trkpt>
      <trkpt lat="45.76648" lon="2.88598">
        <ele>794.4</ele>
      </trkpt>
      <trkpt lat="45.76502" lon="2.88898">
        <ele>787.8</ele>
      </trkpt>
      <trkpt lat="45.76482" lon="2.89107">
        <ele>791.9</ele>
      </trkpt>
      <trkpt lat="45.76345" lon="2.89084">
        <ele>789.1</ele>
      </trkpt>
      <trkpt lat="45.7634" lon="2.8948">
        <ele>785</ele>
      </trkpt>
      <trkpt lat="45.7639" lon="2.89593">
        <ele>788.1</ele>
      </trkpt>
      <trkpt lat="45.76309" lon="2.89865">
        <ele>801.7</ele>
      </trkpt>
      <trkpt lat="45.76208" lon="2.89909">
        <ele>806.7</ele>
      </trkpt>
      <trkpt lat="45.7601" lon="2.90305">
        <ele>856.7</ele>
      </trkpt>
      <trkpt lat="45.761" lon="2.90385">
        <ele>856</ele>
      </trkpt>
      <trkpt lat="45.76102" lon="2.90493">
        <ele>859.2</ele>
      </trkpt>
      <trkpt lat="45.76139" lon="2.90541">
        <ele>856.7</ele>
      </trkpt>
      <trkpt lat="45.76189" lon="2.9079">
        <ele>863.5</ele>
      </trkpt>
      <trkpt lat="45.75996" lon="2.91314">
        <ele>888.2</ele>
      </trkpt>
      <trkpt lat="45.75938" lon="2.91294">
        <ele>888.6</ele>
      </trkpt>
      <trkpt lat="45.75823" lon="2.91554">
        <ele>899.4</ele>
      </trkpt>
      <trkpt lat="45.75731" lon="2.9161">
        <ele>903</ele>
      </trkpt>
      <trkpt lat="45.75608" lon="2.91662">
        <ele>908.2</ele>
      </trkpt>
      <trkpt lat="45.75493" lon="2.9207">
        <ele>923.3</ele>
      </trkpt>
      <trkpt lat="45.75395" lon="2.9219">
        <ele>932.2</ele>
      </trkpt>
      <trkpt lat="45.75328" lon="2.92919">
        <ele>964</ele>
      </trkpt>
      <trkpt lat="45.75521" lon="2.93403">
        <ele>986.3</ele>
      </trkpt>
      <trkpt lat="45.75836" lon="2.94416">
        <ele>1019.7</ele>
      </trkpt>
      <trkpt lat="45.75857" lon="2.94756">
        <ele>1041.3</ele>
      </trkpt>
      <trkpt lat="45.7641" lon="2.95541">
        <ele>1080</ele>
      </trkpt>
      <trkpt lat="45.76621" lon="2.95439">
        <ele>1078.7</ele>
      </trkpt>
      <trkpt lat="45.76925" lon="2.9536">
        <ele>1088.4</ele>
      </trkpt>
      <trkpt lat="45.77371" lon="2.95184">
        <ele>1069.3</ele>
      </trkpt>
      <trkpt lat="45.77533" lon="2.95224">
        <ele>1064.5</ele>
      </trkpt>
      <trkpt lat="45.77565" lon="2.95292">
        <ele>1072.7</ele>
      </trkpt>
      <trkpt lat="45.77786" lon="2.95269">
        <ele>1075.2</ele>
      </trkpt>
      <trkpt lat="45.78038" lon="2.95391">
        <ele>1073.8</ele>
      </trkpt>
      <trkpt lat="45.782" lon="2.95844">
        <ele>1073.5</ele>
      </trkpt>
      <trkpt lat="45.78579" lon="2.95844">
        <ele>1073.3</ele>
      </trkpt>
      <trkpt lat="45.78637" lon="2.94949">
        <ele>1057.3</ele>
      </trkpt>
      <trkpt lat="45.78596" lon="2.94569">
        <ele>1044.7</ele>
      </trkpt>
      <trkpt lat="45.78719" lon="2.94399">
        <ele>1040.8</ele>
      </trkpt>
      <trkpt lat="45.79018" lon="2.94391">
        <ele>1048.9</ele>
      </trkpt>
      <trkpt lat="45.79164" lon="2.94438">
        <ele>1036.2</ele>
      </trkpt>
      <trkpt lat="45.7955" lon="2.94953">
        <ele>1024.3</ele>
      </trkpt>
      <trkpt lat="45.79571" lon="2.95024">
        <ele>1018.3</ele>
      </trkpt>
      <trkpt lat="45.79596" lon="2.95041">
        <ele>1015.7</ele>
      </trkpt>
      <trkpt lat="45.79895" lon="2.94976">
        <ele>1020</ele>
      </trkpt>
      <trkpt lat="45.79987" lon="2.95075">
        <ele>1005.1</ele>
      </trkpt>
      <trkpt lat="45.8009" lon="2.95092">
        <ele>997.5</ele>
      </trkpt>
      <trkpt lat="45.80259" lon="2.95128">
        <ele>982.1</ele>
      </trkpt>
      <trkpt lat="45.8041" lon="2.9503">
        <ele>961.4</ele>
      </trkpt>
      <trkpt lat="45.80513" lon="2.94988">
        <ele>954.9</ele>
      </trkpt>
      <trkpt lat="45.80947" lon="2.95093">
        <ele>964.9</ele>
      </trkpt>
      <trkpt lat="45.81138" lon="2.95062">
        <ele>963.5</ele>
      </trkpt>
      <trkpt lat="45.81215" lon="2.95081">
        <ele>961.6</ele>
      </trkpt>
      <trkpt lat="45.81443" lon="2.95323">
        <ele>956.9</ele>
      </trkpt>
    </trkseg>
  </trk>
</gpx>